Flight Track Log - Related Links

Times and Time Zones

All times are in EDT time to prevent confusion due to time zone crossing. See the 9M-MNB flight status page for this flight to view local times or setup timezone preferences in your user account.

Time Position Orientation Groundspeed Altitude Reporting Facility
EDT Latitude Longitude Course Direction KTS MPH feet Rate Location/Type
Mon 05:15:53 PM 51.4650 -0.4340 90° East 149 171 800  Level FlightAware ADS-B
Mon 05:16:23 PM 51.4700 -0.3990 77° East 157 181 1,500 1,692 Climbing FlightAware ADS-B
Mon 05:16:32 PM 51.4760 -0.3877 50° Northeast 154 177 1,900 1,385 Climbing FlightAware ADS-B
Mon 05:16:49 PM 51.4837 -0.3728 50° Northeast 156 180 2,100 706 Climbing FlightAware ADS-B
Mon 05:17:06 PM 51.4924 -0.3556 51° Northeast 171 197 2,300 667 Climbing FlightAware ADS-B
Mon 05:17:25 PM 51.5035 -0.3337 51° Northeast 187 215 2,500 1,024 Climbing FlightAware ADS-B
Mon 05:17:47 PM 51.5175 -0.3062 51° Northeast 225 259 3,000 1,800 Climbing FlightAware ADS-B
Mon 05:18:05 PM 51.5290 -0.2830 52° Northeast 227 261 3,700 2,455 Climbing FlightAware ADS-B
Mon 05:18:09 PM 51.5310 -0.2772 61° Northeast 226 260 3,900 2,250 Climbing FlightAware ADS-B
Mon 05:18:13 PM 51.5326 -0.2709 68° East 225 259 4,000 1,909 Climbing FlightAware ADS-B
Mon 05:18:31 PM 51.5384 -0.2421 72° East 232 267 4,600 1,846 Climbing FlightAware ADS-B
Mon 05:18:39 PM 51.5412 -0.2279 72° East 245 282 4,800 1,000 Climbing FlightAware ADS-B
Mon 05:18:43 PM 51.5430 -0.2208 68° East 251 289 4,800 750 Level FlightAware ADS-B
Mon 05:18:47 PM 51.5452 -0.2141 62° Northeast 258 297 4,900 1,000 Climbing FlightAware ADS-B
Mon 05:18:55 PM 51.5510 -0.2026 51° Northeast 271 312 5,000 706 Climbing FlightAware ADS-B
Mon 05:19:04 PM 51.5602 -0.1898 41° Northeast 284 327 5,100 600 Climbing FlightAware ADS-B
Mon 05:19:15 PM 51.5699 -0.1749 44° Northeast 294 338 5,200 667 Climbing FlightAware ADS-B
Mon 05:19:22 PM 51.5766 -0.1626 49° Northeast 303 349 5,300 818 Climbing FlightAware ADS-B
Mon 05:19:37 PM 51.5905 -0.1347 51° Northeast 320 368 5,500 968 Climbing FlightAware ADS-B
Mon 05:19:53 PM 51.6053 -0.1048 51° Northeast 337 388 5,800 1,161 Climbing FlightAware ADS-B
Mon 05:20:08 PM 51.6202 -0.0747 51° Northeast 346 398 6,100 1,000 Climbing FlightAware ADS-B
Mon 05:20:23 PM 51.6353 -0.0436 52° Northeast 348 400 6,300 968 Climbing FlightAware ADS-B
Mon 05:20:39 PM 51.6504 -0.0125 52° Northeast 350 403 6,600 1,875 Climbing FlightAware ADS-B
Mon 05:20:55 PM 51.6667 0.0215 52° Northeast 352 405 7,300 2,323 Climbing FlightAware ADS-B
Mon 05:21:10 PM 51.6820 0.0536 52° Northeast 357 411 7,800 1,548 Climbing FlightAware ADS-B
Mon 05:21:26 PM 51.6973 0.0857 53° Northeast 364 419 8,100 1,742 Climbing FlightAware ADS-B
Mon 05:21:41 PM 51.7135 0.1195 52° Northeast 367 422 8,700 2,323 Climbing FlightAware ADS-B
Mon 05:21:57 PM 51.7300 0.1543 53° Northeast 369 425 9,300 2,323 Climbing FlightAware ADS-B
Mon 05:22:12 PM 51.7456 0.1875 53° Northeast 371 427 9,900 -800 Climbing FlightAware ADS-B
Mon 05:22:27 PM 51.7609 0.2202 53° Northeast 372 428 8,900 2,129 Descending FlightAware UK
Mon 05:22:43 PM 51.7776 0.2561 53° Northeast 377 434 11,000 1,833 Climbing FlightAware ADS-B
Mon 05:23:03 PM 51.7986 0.3016 53° Northeast 380 437 10,000 1,800 Descending FlightAware UK
Mon 05:23:13 PM 51.8095 0.3253 53° Northeast 388 447 11,900 2,200 Climbing FlightAware ADS-B
Mon 05:23:33 PM 51.8309 0.3721 53° Northeast 384 442 11,100 2,323 Descending FlightAware UK
Mon 05:23:44 PM 51.8424 0.3980 53° Northeast 392 451 13,100 6,000 Climbing FlightAware ADS-B
Mon 05:23:56 PM 51.8548 0.4271 55° Northeast 396 456 13,400 -1,355 Climbing FlightAware ADS-B
Mon 05:24:15 PM 51.8712 0.4765 55° Northeast 390 449 12,400 1,742 Descending FlightAware UK
Mon 05:24:27 PM 51.8812 0.5090 55° Northeast 403 464 14,300 1,600 Climbing FlightAware ADS-B
Mon 05:24:45 PM 51.8963 0.5590 55° Northeast 396 456 13,200 1,800 Descending FlightAware UK
Mon 05:24:57 PM 51.9061 0.5918 55° Northeast 411 473 15,200 1,800 Climbing FlightAware ADS-B
Mon 05:25:15 PM 51.9213 0.6422 55° Northeast 402 463 14,100 1,750 Descending FlightAware UK
Mon 05:25:21 PM 51.9259 0.6578 55° Northeast 417 480 15,900 2,000 Climbing FlightAware ADS-B
Mon 05:25:39 PM 51.9395 0.7114 55° Northeast 406 467 14,900 1,600 Descending FlightAware UK
Mon 05:25:51 PM 51.9481 0.7466 55° Northeast 423 487 16,700 1,600 Climbing FlightAware ADS-B
Mon 05:26:09 PM 51.9603 0.8002 55° Northeast 410 472 15,700 1,688 Descending FlightAware UK
Mon 05:26:23 PM 51.9680 0.8340 70° East 426 490 17,600 2,000 Climbing FlightAware ADS-B
Mon 05:26:27 PM 51.9724 0.8542 70° East 414 476 16,300 2,571 Descending FlightAware UK
Mon 05:26:30 PM 51.9741 0.8620 70° East 428 493 17,900 1,333 Climbing FlightAware ADS-B
Mon 05:26:45 PM 51.9845 0.9084 70° East 416 479 16,700 1,565 Descending FlightAware UK
Mon 05:26:53 PM 51.9895 0.9314 70° East 434 499 18,500 1,500 Climbing FlightAware ADS-B
Mon 05:27:09 PM 51.9969 0.9842 70° East 422 486 17,300 1,500 Descending FlightAware UK
Mon 05:27:13 PM 51.9979 0.9942 70° East 439 505 19,000 1,750 Climbing FlightAware ADS-B
Mon 05:27:33 PM 52.0026 1.0631 70° East 422 486 18,000 1,400 Descending FlightAware UK
Mon 05:27:43 PM 52.0052 1.0953 70° East 445 512 19,700 1,200 Climbing FlightAware ADS-B
Mon 05:28:03 PM 52.0103 1.1621 70° East 428 493 18,600 -947 Descending FlightAware UK
Mon 05:28:21 PM 52.0135 1.2226 85° East 430 495 19,100 5,040 Climbing FlightAware UK
Mon 05:28:28 PM 52.0140 1.2380 85° East 452 520 20,700 1,500 Climbing FlightAware ADS-B
Mon 05:28:45 PM 52.0165 1.3041 85° East 434 499 19,700 -1,000 Descending FlightAware UK
Mon 05:29:04 PM 52.0194 1.3660 86° East 436 502 20,100 4,286 Climbing FlightAware UK
Mon 05:29:13 PM 52.0210 1.3870 86° East 460 529 21,700 750 Climbing FlightAware ADS-B
Mon 05:29:28 PM 52.0236 1.4484 86° East 440 506 20,400 1,161 Descending FlightAware UK
Mon 05:29:44 PM 52.0266 1.5068 86° East 469 540 22,300 1,167 Climbing FlightAware ADS-B
Mon 05:30:04 PM 52.0300 1.5755 86° East 444 511 21,100 -1,263 Descending FlightAware UK
Mon 05:30:22 PM 52.0333 1.6401 85° East 448 516 21,500 4,235 Climbing FlightAware UK
Mon 05:30:38 PM 52.0360 1.6890 85° East 475 547 23,500 5,520 Climbing FlightAware ADS-B
Mon 05:30:47 PM 52.0377 1.7292 86° East 474 545 23,800 -1,615 Climbing FlightAware ADS-B
Mon 05:31:04 PM 52.0407 1.7891 86° East 452 520 22,800 -1,200 Descending FlightAware UK
Mon 05:31:22 PM 52.0437 1.8527 86° East 454 522 23,100 1,000 Climbing FlightAware UK
Mon 05:31:40 PM 52.0468 1.9172 86° East 458 527 23,400 1,000 Climbing FlightAware UK
Mon 05:31:58 PM 52.0498 1.9807 86° East 460 529 23,700 6,000 Climbing FlightAware UK
Mon 05:31:58 PM 52.0490 1.9600 86° East 481 554 25,200 1,333 Climbing FlightAware ADS-B
Mon 05:32:16 PM 52.0526 2.0465 86° East 464 534 24,100 -1,333 Descending FlightAware UK
Mon 05:32:34 PM 52.0556 2.1122 86° East 466 536 24,400 4,444 Climbing FlightAware UK
Mon 05:32:43 PM 52.0570 2.1350 86° East 485 558 26,100 1,250 Climbing FlightAware ADS-B
Mon 05:32:58 PM 52.0596 2.2000 86° East 468 539 24,900 -1,636 Descending FlightAware UK
Mon 05:33:16 PM 52.0625 2.2649 86° East 470 541 25,200 4,560 Climbing FlightAware UK
Mon 05:33:23 PM 52.0630 2.2810 86° East 489 563 26,800 1,250 Climbing FlightAware ADS-B
Mon 05:33:40 PM 52.0681 2.3532 86° East 474 545 25,700 -1,200 Descending FlightAware UK
Mon 05:33:58 PM 52.0742 2.4183 81° East 474 545 26,100 4,957 Climbing FlightAware UK
Mon 05:34:03 PM 52.0750 2.4270 81° East 490 564 27,600 720 Climbing FlightAware ADS-B
Mon 05:34:23 PM 52.0820 2.5065 81° East 478 550 26,400 -1,421 Descending FlightAware UK
Mon 05:34:41 PM 52.0874 2.5724 82° East 480 552 26,700 5,700 Climbing FlightAware UK
Mon 05:34:43 PM 52.0870 2.5750 82° East 492 566 28,300 1,059 Climbing FlightAware ADS-B
Mon 05:34:58 PM 52.0926 2.6378 82° East 482 555 27,000 -2,000 Descending FlightAware UK
Mon 05:35:16 PM 52.0975 2.7041 83° East 484 557 27,200 4,000 Climbing FlightAware UK
Mon 05:35:28 PM 52.1000 2.7420 83° East 496 571 29,000 968 Climbing FlightAware ADS-B
Mon 05:35:47 PM 52.1053 2.8157 83° East 486 559 27,700 -1,784 Descending FlightAware UK
Mon 05:36:05 PM 52.1102 2.8825 83° East 486 559 27,900 4,385 Climbing FlightAware UK
Mon 05:36:13 PM 52.1120 2.9050 83° East 499 574 29,600 1,000 Climbing FlightAware ADS-B
Mon 05:36:29 PM 52.1166 2.9718 83° East 486 559 28,300 -1,636 Descending FlightAware UK
Mon 05:36:46 PM 52.1214 3.0379 83° East 484 557 28,700 5,000 Climbing FlightAware UK
Mon 05:36:53 PM 52.1230 3.0530 83° East 496 571 30,300 720 Climbing FlightAware ADS-B
Mon 05:37:11 PM 52.1281 3.1276 83° East 486 559 29,000 -1,833 Descending FlightAware UK
Mon 05:37:29 PM 52.1327 3.1944 84° East 486 559 29,200 4,636 Climbing FlightAware UK
Mon 05:37:33 PM 52.1330 3.2010 84° East 501 577 30,700 500 Climbing FlightAware ADS-B
Mon 05:37:53 PM 52.1389 3.2839 84° East 488 562 29,400 -1,579 Descending FlightAware UK
Mon 05:38:11 PM 52.1435 3.3514 84° East 484 557 29,700 4,560 Climbing FlightAware UK
Mon 05:38:18 PM 52.1450 3.3730 84° East 504 580 31,300 1,000 Climbing FlightAware ADS-B
Mon 05:38:35 PM 52.1497 3.4423 84° East 488 562 30,100 -1,029 Descending FlightAware UK
Mon 05:38:53 PM 52.1542 3.5098 84° East 488 562 30,700 6,000 Climbing FlightAware UK
Mon 05:38:58 PM 52.1550 3.5220 84° East 489 563 32,400 1,750 Climbing FlightAware ADS-B
Mon 05:39:17 PM 52.1602 3.5966 84° East 478 550 31,400 -1,459 Descending FlightAware UK
Mon 05:39:35 PM 52.1648 3.6622 84° East 480 552 31,500 3,923 Climbing FlightAware UK
Mon 05:39:43 PM 52.1660 3.6830 84° East 490 564 33,100 250 Climbing FlightAware ADS-B
Mon 05:39:59 PM 52.1704 3.7502 84° East 484 557 31,600 -2,294 Descending FlightAware UK
Mon 05:40:17 PM 52.1748 3.8167 84° East 488 562 31,800 4,750 Climbing FlightAware UK
Mon 05:40:23 PM 52.1760 3.8300 84° East 492 566 33,500 1,250 Climbing FlightAware ADS-B
Mon 05:40:41 PM 52.1804 3.9050 84° East 480 552 32,300 -2,000 Descending FlightAware UK
Mon 05:40:59 PM 52.1848 3.9712 84° East 482 555 32,300 3,556 Level FlightAware UK
Mon 05:41:08 PM 52.1860 3.9980 84° East 498 573 33,900 250 Climbing FlightAware ADS-B
Mon 05:41:23 PM 52.1903 4.0603 84° East 486 559 32,400 -2,364 Descending FlightAware UK
Mon 05:41:41 PM 52.1945 4.1282 84° East 482 555 32,600 4,080 Climbing FlightAware UK
Mon 05:41:48 PM 52.1960 4.1480 84° East 504 580 34,100 500 Climbing FlightAware ADS-B
Mon 05:42:05 PM 52.1999 4.2191 84° East 488 562 32,800 -1,714 Descending FlightAware UK
Mon 05:42:23 PM 52.2042 4.2870 84° East 488 562 33,100 4,957 Climbing FlightAware UK
Mon 05:42:28 PM 52.2050 4.2980 84° East 501 577 34,700 1,000 Climbing FlightAware ADS-B
Mon 05:42:47 PM 52.2100 4.3771 84° East 484 557 33,500 -1,946 Descending FlightAware UK
Mon 05:43:05 PM 52.2141 4.4446 84° East 486 559 33,500 3,462 Level FlightAware UK
Mon 05:43:13 PM 52.2150 4.4630 84° East 504 580 35,000  Climbing FlightAware ADS-B
Mon 05:43:29 PM 52.2196 4.5350 84° East 486 559 33,500 -2,647 Descending FlightAware UK
Mon 05:43:47 PM 52.2236 4.6035 85° East 486 559 33,500 3,750 Level FlightAware UK
Mon 05:43:53 PM 52.2240 4.6130 85° East 505 581 35,000  Climbing FlightAware ADS-B
Mon 05:44:11 PM 52.2283 4.6941 85° East 488 562 33,500 -2,500 Descending FlightAware UK
Mon 05:44:29 PM 52.2318 4.7620 85° East 488 562 33,500 3,333 Level FlightAware UK
Mon 05:44:38 PM 52.2340 4.7890 85° East 506 582 35,000  Climbing FlightAware ADS-B
Mon 05:44:53 PM 52.2363 4.8526 85° East 490 564 33,500 -2,727 Descending FlightAware UK
Mon 05:45:11 PM 52.2396 4.9207 85° East 488 562 33,500 3,600 Level FlightAware UK
Mon 05:45:18 PM 52.2420 4.9330 85° East 506 582 35,000  Climbing FlightAware ADS-B
Mon 05:45:35 PM 52.2447 5.0118 85° East 492 566 33,500 -2,571 Descending FlightAware UK
Mon 05:45:53 PM 52.2486 5.0801 85° East 492 566 33,500 3,913 Level FlightAware UK
Mon 05:45:58 PM 52.2500 5.0890 85° East 502 578 35,000  Climbing FlightAware ADS-B
Mon 05:46:17 PM 52.2537 5.1706 85° East 488 562 33,500 -2,432 Descending FlightAware UK
Mon 05:46:35 PM 52.2570 5.2381 85° East 486 559 33,500 4,286 Level FlightAware UK
Mon 05:46:38 PM 52.2580 5.2370 85° East 499 574 35,000  Climbing FlightAware ADS-B
Mon 05:46:53 PM 52.2629 5.3066 85° East 486 559 33,500 -2,727 Descending FlightAware UK
Mon 05:47:11 PM 52.2676 5.3746 84° East 486 559 33,500 3,000 Level FlightAware UK
Mon 05:47:23 PM 52.2670 5.4030 84° East 499 574 35,000  Climbing FlightAware ADS-B
Mon 05:47:41 PM 52.2732 5.4869 84° East 486 559 33,500 -2,500 Descending FlightAware UK
Mon 05:47:59 PM 52.2768 5.5545 85° East 484 557 33,500 4,091 Level FlightAware UK
Mon 05:48:03 PM 52.2750 5.5600 85° East 500 575 35,000  Climbing FlightAware ADS-B
Mon 05:48:23 PM 52.2808 5.6442 85° East 486 559 33,500 -2,368 Descending FlightAware UK
Mon 05:48:41 PM 52.2838 5.7117 86° East 488 562 33,500 3,600 Level FlightAware UK
Mon 05:48:48 PM 52.2830 5.7260 86° East 502 578 35,000  Climbing FlightAware ADS-B
Mon 05:49:05 PM 52.2882 5.8029 86° East 484 557 33,500 -2,571 Descending FlightAware UK
Mon 05:49:23 PM 52.2913 5.8706 86° East 484 557 33,500 3,913 Level FlightAware UK
Mon 05:49:28 PM 52.2900 5.8780 86° East 503 579 35,000 1,800 Climbing FlightAware ADS-B
Mon 05:50:13 PM 52.2980 6.0510 86° East 505 581 35,000  Level FlightAware ADS-B
Mon 05:50:53 PM 52.3050 6.2030 86° East 503 579 35,000  Level FlightAware ADS-B
Mon 05:51:33 PM 52.3120 6.3520 86° East 502 578 35,000  Level FlightAware ADS-B
Mon 05:52:18 PM 52.3190 6.5210 86° East 500 575 35,000  Level FlightAware ADS-B
Mon 05:52:58 PM 52.3250 6.6690 86° East 502 578 35,000  Level FlightAware ADS-B
Mon 05:53:43 PM 52.3320 6.8410 86° East 503 579 35,000  Level FlightAware ADS-B
Mon 05:54:23 PM 52.3380 6.9950 86° East 501 577 35,000  Level FlightAware ADS-B
Mon 05:55:03 PM 52.3430 7.1460 87° East 501 577 35,000  Level FlightAware ADS-B
Mon 05:55:48 PM 52.3490 7.2970 86° East 502 578 35,000  Level FlightAware ADS-B
Mon 05:56:28 PM 52.3550 7.4650 87° East 502 578 35,000  Level FlightAware ADS-B
Mon 05:57:13 PM 52.3600 7.6340 87° East 501 577 35,000  Level FlightAware ADS-B
Mon 05:57:53 PM 52.3650 7.7910 87° East 500 575 35,000  Level FlightAware ADS-B
Mon 05:58:33 PM 52.3700 7.9390 87° East 499 574 35,000  Level FlightAware ADS-B
Mon 05:59:18 PM 52.3740 8.0980 88° East 498 573 35,000  Level FlightAware ADS-B
Mon 05:59:48 PM 52.3770 8.2130 88° East 499 574 35,000  Level FlightAware ADS-B
Mon 06:00:38 PM 52.3830 8.4080 87° East 501 577 35,000  Level FlightAware ADS-B
Mon 06:01:23 PM 52.3870 8.5780 88° East 503 579 35,000  Level FlightAware ADS-B
Mon 06:02:03 PM 52.3900 8.7290 88° East 505 581 35,000  Level FlightAware ADS-B
Mon 06:02:48 PM 52.3940 8.9000 88° East 505 581 35,000  Level FlightAware ADS-B
Mon 06:03:28 PM 52.3970 9.0550 88° East 504 580 35,000  Level FlightAware ADS-B
Mon 06:04:08 PM 52.4000 9.2040 88° East 502 578 35,000  Level FlightAware ADS-B
Mon 06:04:53 PM 52.4030 9.3770 88° East 502 578 35,000  Level FlightAware ADS-B
Mon 06:05:38 PM 52.4060 9.5470 88° East 502 578 35,000  Level FlightAware ADS-B
Mon 06:06:18 PM 52.4090 9.6990 88° East 500 575 35,000  Level FlightAware ADS-B
Mon 06:06:58 PM 52.4110 9.8470 89° East 499 574 35,000  Level FlightAware ADS-B
Mon 06:07:43 PM 52.4130 10.0200 89° East 496 571 35,000  Level FlightAware ADS-B
Mon 06:08:23 PM 52.4150 10.1690 89° East 494 568 35,000  Level FlightAware ADS-B
Mon 06:09:03 PM 52.4160 10.3170 89° East 493 567 35,000  Level FlightAware ADS-B
Mon 06:09:48 PM 52.4180 10.4850 89° East 492 566 35,000  Level FlightAware ADS-B
Mon 06:10:28 PM 52.4190 10.6340 89° East 490 564 35,000  Level FlightAware ADS-B
Mon 06:11:03 PM 52.4200 10.7630 89° East 491 565 35,000  Level FlightAware ADS-B
Mon 06:11:53 PM 52.4200 10.7640 90° East 491 565 35,000  Level FlightAware ADS-B
Mon 06:12:38 PM 52.4130 10.9450 94° East 490 564 35,000  Level FlightAware ADS-B
Mon 06:13:18 PM 52.4070 11.1170 93° East 491 565 35,000  Level FlightAware ADS-B
Mon 06:13:58 PM 52.4030 11.2410 93° East 490 564 35,000  Level FlightAware ADS-B
Mon 06:14:33 PM 52.3980 11.3700 94° East 492 566 35,000  Level FlightAware ADS-B
Mon 06:15:58 PM 52.3810 11.8220 93° East 494 568 35,000  Level FlightAware ADS-B
Mon 06:17:13 PM 52.3690 12.1180 94° East 497 572 35,000  Level FlightAware ADS-B
Mon 06:18:23 PM 52.3580 12.3770 94° East 496 571 35,000  Level FlightAware ADS-B
Mon 06:19:08 PM 52.3490 12.5690 94° East 495 570 35,000  Level FlightAware ADS-B
Mon 06:19:53 PM 52.3420 12.7240 94° East 494 568 35,000  Level FlightAware ADS-B
Mon 06:20:38 PM 52.3340 12.8950 94° East 496 571 35,000  Level FlightAware ADS-B
Mon 06:21:28 PM 52.3240 13.0880 95° East 492 566 35,000  Level FlightAware ADS-B
Mon 06:22:08 PM 52.3170 13.2360 94° East 491 565 35,000  Level FlightAware ADS-B
Mon 06:22:53 PM 52.3080 13.4000 95° East 493 567 35,000  Level FlightAware ADS-B
Mon 06:23:33 PM 52.3000 13.5470 95° East 493 567 35,000  Level FlightAware ADS-B
Mon 06:24:13 PM 52.2920 13.6960 95° East 490 564 35,000  Level FlightAware ADS-B
Mon 06:24:58 PM 52.2820 13.8660 95° East 489 563 35,000  Level FlightAware ADS-B
Mon 06:25:38 PM 52.2740 14.0120 95° East 489 563 35,000  Level FlightAware ADS-B
Mon 06:26:18 PM 52.2650 14.1530 96° East 491 565 35,000  Level FlightAware ADS-B
Mon 06:27:03 PM 52.2530 14.3220 97° East 494 568 35,000  Level FlightAware ADS-B
Mon 06:27:43 PM 52.2430 14.4700 96° East 496 571 35,000  Level FlightAware ADS-B
Mon 06:28:28 PM 52.2320 14.6270 96° East 498 573 35,000  Level FlightAware ADS-B
Mon 06:29:08 PM 52.2220 14.7620 97° East 498 573 35,000  Level FlightAware ADS-B
Mon 06:29:48 PM 52.2100 14.9330 96° East 499 574 35,000  Level FlightAware ADS-B
Mon 06:30:33 PM 52.1970 15.1040 97° East 497 572 35,000  Level FlightAware ADS-B
Mon 06:31:13 PM 52.1860 15.2480 97° East 496 571 35,000  Level FlightAware ADS-B
Mon 06:31:58 PM 52.1730 15.4150 97° East 498 573 35,000  Level FlightAware ADS-B
Mon 06:32:38 PM 52.1620 15.5640 97° East 499 574 35,000  Level FlightAware ADS-B
Mon 06:33:18 PM 52.1500 15.7090 98° East 499 574 35,000  Level FlightAware ADS-B
Mon 06:34:03 PM 52.1360 15.8840 97° East 499 574 35,000  Level FlightAware ADS-B
Mon 06:34:43 PM 52.1240 16.0340 97° East 498 573 35,000  Level FlightAware ADS-B
Mon 06:35:28 PM 52.1100 16.1940 98° East 496 571 35,000  Level FlightAware ADS-B
Mon 06:36:08 PM 52.0980 16.3360 98° East 494 568 35,000  Level FlightAware ADS-B
Mon 06:36:48 PM 52.0850 16.4830 98° East 493 567 35,000  Level FlightAware ADS-B
Mon 06:37:33 PM 52.0710 16.6420 98° East 494 568 35,000  Level FlightAware ADS-B
Mon 06:38:08 PM 52.0590 16.7810 98° East 495 570 35,000  Level FlightAware ADS-B
Mon 06:38:53 PM 52.0450 16.9360 98° East 495 570 35,000  Level FlightAware ADS-B
Mon 06:39:38 PM 52.0290 17.1080 99° East 495 570 35,000  Level FlightAware ADS-B
Mon 06:40:18 PM 52.0150 17.2560 99° East 496 571 35,000  Level FlightAware ADS-B
Mon 06:41:03 PM 51.9990 17.4240 99° East 497 572 35,000  Level FlightAware ADS-B
Mon 06:41:43 PM 51.9850 17.5720 99° East 500 575 35,000  Level FlightAware ADS-B
Mon 06:42:23 PM 51.9710 17.7200 99° East 501 577 35,000  Level FlightAware ADS-B
Mon 06:43:08 PM 51.9550 17.8830 99° East 503 579 35,000  Level FlightAware ADS-B
Mon 06:43:48 PM 51.9400 18.0330 99° East 505 581 35,000  Level FlightAware ADS-B
Mon 06:44:33 PM 51.9220 18.2030 100° East 505 581 35,000  Level FlightAware ADS-B
Mon 06:45:13 PM 51.9070 18.3500 99° East 505 581 35,000  Level FlightAware ADS-B
Mon 06:45:58 PM 51.8900 18.5150 99° East 505 581 35,000  Level FlightAware ADS-B
Mon 06:46:38 PM 51.8740 18.6650 100° East 506 582 35,000  Level FlightAware ADS-B
Mon 06:47:18 PM 51.8580 18.8130 100° East 508 585 35,000  Level FlightAware ADS-B
Mon 06:48:03 PM 51.8390 18.9850 100° East 509 586 35,000  Level FlightAware ADS-B
Mon 06:48:43 PM 51.8230 19.1350 100° East 508 585 35,000  Level FlightAware ADS-B
Mon 06:49:28 PM 51.8040 19.3010 100° East 509 586 35,000  Level FlightAware ADS-B
Mon 06:50:08 PM 51.7880 19.4430 100° East 509 586 35,000  Level FlightAware ADS-B
Mon 06:50:48 PM 51.7710 19.5960 100° East 510 587 35,000  Level FlightAware ADS-B
Mon 06:51:33 PM 51.7510 19.7700 100° East 510 587 35,000  Level FlightAware ADS-B
Mon 06:52:13 PM 51.7330 19.9190 101° East 510 587 35,000  Level FlightAware ADS-B
Mon 06:52:58 PM 51.7140 20.0830 101° East 512 589 35,000  Level FlightAware ADS-B
Mon 06:53:38 PM 51.6960 20.2330 101° East 514 592 35,000  Level FlightAware ADS-B
Mon 06:54:18 PM 51.6770 20.3850 101° East 515 593 35,000  Level FlightAware ADS-B
Mon 06:55:03 PM 51.6570 20.5540 101° East 515 593 35,000  Level FlightAware ADS-B
Mon 06:55:43 PM 51.6380 20.7040 101° East 516 594 35,000  Level FlightAware ADS-B
Mon 06:56:23 PM 51.6190 20.8540 101° East 517 595 35,000  Level FlightAware ADS-B
Mon 06:57:08 PM 51.5980 21.0210 101° East 519 597 35,000  Level FlightAware ADS-B
Mon 06:57:48 PM 51.5790 21.1700 102° East 518 596 35,000  Level FlightAware ADS-B
Mon 06:58:33 PM 51.5560 21.3460 102° East 519 597 35,000  Level FlightAware ADS-B
Mon 06:59:13 PM 51.5360 21.4960 102° East 521 600 35,000  Level FlightAware ADS-B
Mon 06:59:58 PM 51.5140 21.6650 102° East 520 598 35,000  Level FlightAware ADS-B
Mon 07:00:38 PM 51.4940 21.8120 102° East 519 597 35,000  Level FlightAware ADS-B
Mon 07:01:18 PM 51.4730 21.9650 102° East 518 596 35,000  Level FlightAware ADS-B
Mon 07:02:03 PM 51.4490 22.1380 102° East 517 595 35,000  Level FlightAware ADS-B
Mon 07:02:43 PM 51.4280 22.2870 103° East 516 594 35,000  Level FlightAware ADS-B
Mon 07:03:23 PM 51.4080 22.4330 102° East 515 593 35,000  Level FlightAware ADS-B
Mon 07:04:08 PM 51.3850 22.5950 103° East 516 594 35,000  Level FlightAware ADS-B
Mon 07:04:48 PM 51.3630 22.7450 103° East 516 594 35,000  Level FlightAware ADS-B
Mon 07:05:33 PM 51.3400 22.9090 103° East 515 593 35,000  Level FlightAware ADS-B
Mon 07:06:08 PM 51.3200 23.0430 103° East 516 594 35,000  Level FlightAware ADS-B
Mon 07:06:53 PM 51.2960 23.2070 103° East 519 597 35,000  Level FlightAware ADS-B
Mon 07:07:38 PM 51.2710 23.3720 104° East 521 600 35,000  Level FlightAware ADS-B
Mon 07:08:18 PM 51.2480 23.5230 104° East 521 600 35,000  Level FlightAware ADS-B
Mon 07:09:03 PM 51.2220 23.6960 103° East 521 600 35,000  Level FlightAware ADS-B
Mon 07:09:43 PM 51.1990 23.8460 104° East 523 602 35,000  Level FlightAware ADS-B
Mon 07:10:23 PM 51.1760 23.9950 104° East 522 601 35,000  Level FlightAware ADS-B
Mon 07:11:08 PM 51.1500 24.1600 104° East 521 600 35,000  Level FlightAware ADS-B
Mon 07:11:48 PM 51.1270 24.3070 104° East 521 600 35,000  Level FlightAware ADS-B
Mon 07:12:33 PM 51.0990 24.4770 105° East 523 602 35,000  Level FlightAware ADS-B
Mon 07:13:13 PM 51.0760 24.6230 104° East 523 602 35,000  Level FlightAware ADS-B
Mon 07:13:53 PM 51.0520 24.7680 105° East 524 603 35,000  Level FlightAware ADS-B
Mon 07:14:38 PM 51.0240 24.9390 105° East 523 602 35,000  Level FlightAware ADS-B
Mon 07:15:18 PM 51.0020 25.0740 104° East 523 602 35,000  Level FlightAware ADS-B
Mon 07:16:03 PM 50.9750 25.2350 105° East 523 602 35,000  Level FlightAware ADS-B
Mon 07:16:43 PM 50.9500 25.3850 105° East 520 598 35,000  Level FlightAware ADS-B
Mon 07:17:23 PM 50.9240 25.5330 106° East 520 598 35,000  Level FlightAware ADS-B
Mon 07:18:08 PM 50.8950 25.7040 105° East 522 601 35,000  Level FlightAware ADS-B
Mon 07:19:03 PM 50.8630 25.8900 105° East 522 601 35,000  Level FlightAware ADS-B
Mon 07:19:43 PM 50.8310 26.0670 106° East 523 602 35,000  Level FlightAware ADS-B
Mon 07:20:28 PM 50.8030 26.2280 105° East 522 601 35,000  Level FlightAware ADS-B
Mon 07:21:08 PM 50.7800 26.3600 105° East 522 601 35,000  Level FlightAware ADS-B
Mon 07:21:48 PM 50.7520 26.5160 106° East 521 600 35,000  Level FlightAware ADS-B
Mon 07:22:38 PM 50.7170 26.7040 106° East 521 600 35,000  Level FlightAware ADS-B
Mon 07:23:18 PM 50.6900 26.8510 106° East 520 598 35,000  Level FlightAware ADS-B
Mon 07:23:58 PM 50.6630 26.9980 106° East 517 595 35,000  Level FlightAware ADS-B
Mon 07:24:38 PM 50.6360 27.1430 106° East 516 594 35,000  Level FlightAware ADS-B
Mon 07:25:23 PM 50.6090 27.3040 105° East 515 593 35,000  Level FlightAware ADS-B
Mon 07:26:08 PM 50.5810 27.4650 105° East 514 592 35,000  Level FlightAware ADS-B
Mon 07:26:38 PM 50.5620 27.5740 105° East 514 592 35,000  Level FlightAware ADS-B
Mon 07:28:28 PM 50.4960 27.9460 105° East 513 590 35,000  Level FlightAware ADS-B
Mon 07:30:00 PM 50.4584 28.2492 101° East  Level Estimated
Mon 07:31:00 PM 50.4334 28.4466 101° East  Level Estimated
Mon 07:32:00 PM 50.4081 28.6439 101° East  Level Estimated
Mon 07:32:38 PM 50.3310 28.8410 101° East 510 587 35,000  Level FlightAware ADS-B
Mon 07:35:00 PM 50.2691 29.3060 102° East  Level Estimated
Mon 07:35:58 PM 50.1960 29.5440 102° East 508 585 35,000  Level FlightAware ADS-B
Mon 07:36:00 PM 50.2424 29.5021 102° East  Level Estimated
Mon 07:36:53 PM 50.1580 29.7380 107° East 507 583 35,200  Level FlightAware ADS-B
Mon 07:37:33 PM 50.1300 29.8770 107° East 506 582 35,800 900 Climbing FlightAware ADS-B
Mon 07:38:13 PM 50.1030 30.0160 107° East 506 582 36,400 776 Climbing FlightAware ADS-B
Mon 07:38:58 PM 50.0710 30.1720 108° East 506 582 36,900 424 Climbing FlightAware ADS-B
Mon 07:39:38 PM 50.0440 30.3090 107° East 498 573 37,000 71 Climbing FlightAware ADS-B
Mon 07:40:23 PM 50.0130 30.4600 108° East 496 571 37,000  Level FlightAware ADS-B
Mon 07:41:03 PM 49.9840 30.5980 108° East 497 572 37,000  Level FlightAware ADS-B
Mon 07:41:43 PM 49.9560 30.7330 108° East 498 573 37,000  Level FlightAware ADS-B
Mon 07:42:28 PM 49.9240 30.8870 108° East 498 573 37,000  Level FlightAware ADS-B
Mon 07:43:08 PM 49.8960 31.0210 108° East 496 571 37,000  Level FlightAware ADS-B
Mon 07:43:53 PM 49.8640 31.1720 108° East 496 571 37,000  Level FlightAware ADS-B
Mon 07:44:33 PM 49.8350 31.3080 108° East 500 575 37,000  Level FlightAware ADS-B
Mon 07:45:13 PM 49.8060 31.4440 108° East 499 574 37,000  Level FlightAware ADS-B
Mon 07:45:58 PM 49.7730 31.5950 109° East 499 574 37,000  Level FlightAware ADS-B
Mon 07:46:38 PM 49.7440 31.7310 108° East 499 574 37,000  Level FlightAware ADS-B
Mon 07:47:23 PM 49.7100 31.8860 109° East 502 578 37,000  Level FlightAware ADS-B
Mon 07:47:58 PM 49.6850 31.9980 109° East 505 581 37,000  Level FlightAware ADS-B
Mon 07:48:43 PM 49.6500 32.1570 109° East 507 583 37,000  Level FlightAware ADS-B
Mon 07:49:28 PM 49.6150 32.3130 109° East 506 582 37,000  Level FlightAware ADS-B
Mon 07:50:08 PM 49.5870 32.4370 109° East 503 579 37,000  Level FlightAware ADS-B
Mon 07:50:48 PM 49.5540 32.5820 109° East 501 577 37,000  Level FlightAware ADS-B
Mon 07:51:28 PM 49.5240 32.7130 109° East 499 574 37,000  Level FlightAware ADS-B
Mon 07:52:08 PM 49.4960 32.8380 109° East 499 574 37,000  Level FlightAware ADS-B
Mon 07:52:48 PM 49.4630 32.9800 110° East 501 577 37,000  Level FlightAware ADS-B
Mon 07:53:28 PM 49.4310 33.1160 110° East 499 574 37,000  Level FlightAware ADS-B
Mon 07:54:23 PM 49.3880 33.2990 110° East 497 572 37,000  Level FlightAware ADS-B
Mon 07:55:03 PM 49.3590 33.4250 109° East 498 573 37,000  Level FlightAware ADS-B
Mon 07:55:43 PM 49.3290 33.5490 110° East 497 572 37,000  Level FlightAware ADS-B
Mon 07:56:28 PM 49.2930 33.7050 109° East 492 566 37,000  Level FlightAware ADS-B
Mon 07:57:08 PM 49.2640 33.8390 108° East 492 566 37,000  Level FlightAware ADS-B
Mon 07:57:53 PM 49.2320 33.9910 108° East 492 566 37,000  Level FlightAware ADS-B
Mon 07:58:33 PM 49.2010 34.1230 110° East 493 567 37,000  Level FlightAware ADS-B
Mon 07:59:13 PM 49.1720 34.2510 109° East 492 566 37,000  Level FlightAware ADS-B
Mon 07:59:53 PM 49.1420 34.3810 109° East 491 565 37,000  Level FlightAware ADS-B
Mon 08:00:38 PM 49.1110 34.5170 109° East 495 570 37,000  Level FlightAware ADS-B
Mon 08:01:13 PM 49.0810 34.6470 109° East 494 568 37,000  Level FlightAware ADS-B
Mon 08:02:03 PM 49.0470 34.7950 109° East 491 565 37,000  Level FlightAware ADS-B
Mon 08:02:43 PM 49.0150 34.9310 110° East 490 564 37,000  Level FlightAware ADS-B
Mon 08:03:28 PM 48.9800 35.0810 110° East 495 570 37,000  Level FlightAware ADS-B
Mon 08:04:08 PM 48.9490 35.2140 109° East 498 573 37,000  Level FlightAware ADS-B
Mon 08:04:53 PM 48.9160 35.3520 110° East 496 571 37,000  Level FlightAware ADS-B
Mon 08:05:28 PM 48.8850 35.4810 110° East 497 572 37,000  Level FlightAware ADS-B
Mon 08:06:08 PM 48.8540 35.6130 110° East 500 575 37,000  Level FlightAware ADS-B
Mon 08:07:13 PM 48.8030 35.8220 110° East 500 575 37,000  Level FlightAware ADS-B
Mon 08:08:28 PM 48.7460 36.0530 110° East 498 573 37,000  Level FlightAware ADS-B
Mon 08:09:18 PM 48.7040 36.2230 110° East 493 567 37,000  Level FlightAware ADS-B
Mon 08:09:53 PM 48.6760 36.3350 111° Southeast 494 568 37,000  Level FlightAware ADS-B
Mon 08:10:38 PM 48.6390 36.4850 110° East 489 563 37,000  Level FlightAware ADS-B
Mon 08:11:23 PM 48.6010 36.6230 113° Southeast 486 559 37,000  Level FlightAware ADS-B
Mon 08:12:03 PM 48.5660 36.7500 113° Southeast 485 558 37,000  Level FlightAware ADS-B
Mon 08:12:48 PM 48.5280 36.8890 112° Southeast 489 563 37,000  Level FlightAware ADS-B
Mon 08:13:28 PM 48.4920 37.0200 112° Southeast 491 565 37,000  Level FlightAware ADS-B
Mon 08:14:08 PM 48.4570 37.1430 113° Southeast 492 566 37,000  Level FlightAware ADS-B
Mon 08:14:53 PM 48.4200 37.2760 113° Southeast 493 567 37,000  Level FlightAware ADS-B
Mon 08:15:33 PM 48.3820 37.4120 113° Southeast 494 568 37,000  Level FlightAware ADS-B
Mon 08:16:13 PM 48.3490 37.5330 112° Southeast 493 567 37,000  Level FlightAware ADS-B
Mon 08:16:53 PM 48.3130 37.6570 114° Southeast 492 566 37,000 71 Level FlightAware ADS-B
Mon 08:17:38 PM 48.2730 37.8010 113° Southeast 492 566 37,100 67 Climbing FlightAware ADS-B
Mon 08:18:23 PM 48.2320 37.9450 113° Southeast 492 566 37,100 75 Level FlightAware ADS-B
Mon 08:18:58 PM 48.2020 38.0530 113° Southeast 492 566 37,200 63 Climbing FlightAware ADS-B
Mon 08:19:58 PM 48.1510 38.2320 113° Southeast 492 566 37,200 63 Level FlightAware ADS-B
Mon 08:20:33 PM 48.1210 38.3400 113° Southeast 492 566 37,300 -141 Climbing FlightAware ADS-B
Mon 08:21:23 PM 48.0770 38.4770 116° Southeast 492 566 37,000 -200 Descending FlightAware ADS-B
Mon 08:22:03 PM 48.0410 38.5990 114° Southeast 491 565 37,000  Level FlightAware ADS-B
Mon 08:22:43 PM 48.0040 38.7240 114° Southeast 490 564 37,000  Level FlightAware ADS-B
Mon 08:23:28 PM 47.9540 38.8940 114° Southeast 493 567 37,000  Level FlightAware ADS-B
Mon 08:24:13 PM 47.9120 39.0340 114° Southeast 486 559 37,000  Level FlightAware ADS-B
Mon 08:24:53 PM 47.8770 39.1500 114° Southeast 484 557 37,000  Level FlightAware ADS-B
Mon 08:25:33 PM 47.8400 39.2710 114° Southeast 486 559 37,000  Level FlightAware ADS-B
Mon 08:26:18 PM 47.7960 39.4090 115° Southeast 483 556 37,000  Level FlightAware ADS-B
Mon 08:26:58 PM 47.7570 39.5320 115° Southeast 484 557 37,000  Level FlightAware ADS-B
Mon 08:27:43 PM 47.7180 39.6540 115° Southeast 486 559 37,000  Level FlightAware ADS-B
Mon 08:28:18 PM 47.6810 39.7700 115° Southeast 485 558 37,000  Level FlightAware ADS-B
Mon 08:29:03 PM 47.6400 39.8960 116° Southeast 484 557 37,000  Level FlightAware ADS-B
Mon 08:29:38 PM 47.6030 40.0100 116° Southeast 485 558 37,000  Level FlightAware ADS-B
Mon 08:30:28 PM 47.5550 40.1570 116° Southeast 485 558 37,000  Level FlightAware ADS-B
Mon 08:31:03 PM 47.5200 40.2640 116° Southeast 484 557 37,000  Level FlightAware ADS-B
Mon 08:31:43 PM 47.4820 40.3800 116° Southeast 476 548 37,000  Level FlightAware ADS-B
Mon 08:32:28 PM 47.4390 40.5110 116° Southeast 469 540 37,000  Level FlightAware ADS-B
Mon 08:33:08 PM 47.4000 40.6280 116° Southeast 456 525 37,000  Level FlightAware ADS-B
Mon 08:33:53 PM 47.3610 40.7470 116° Southeast 457 526 37,000  Level FlightAware ADS-B
Mon 08:34:33 PM 47.3220 40.8630 116° Southeast 462 532 37,000  Level FlightAware ADS-B
Mon 08:35:13 PM 47.2860 40.9720 116° Southeast 466 536 37,000  Level FlightAware ADS-B
Mon 08:36:03 PM 47.2390 41.1110 116° Southeast 466 536 37,000  Level FlightAware ADS-B
Mon 08:36:53 PM 47.1990 41.2330 116° Southeast 466 536 37,000  Level FlightAware ADS-B
Mon 08:37:33 PM 47.1490 41.3760 117° Southeast 475 547 37,000  Level FlightAware ADS-B
Mon 08:38:13 PM 47.1110 41.4880 116° Southeast 476 548 37,000  Level FlightAware ADS-B
Mon 08:39:28 PM 47.0390 41.6960 117° Southeast 476 548 37,000  Level FlightAware ADS-B
Mon 08:40:08 PM 47.0050 41.7940 117° Southeast 476 548 37,000  Level FlightAware ADS-B
Mon 08:40:48 PM 46.9600 41.9230 117° Southeast 462 532 37,000  Level FlightAware ADS-B
Mon 08:41:33 PM 46.9140 42.0560 117° Southeast 463 533 37,000  Level FlightAware ADS-B
Mon 08:42:13 PM 46.8770 42.1580 118° Southeast 464 534 37,000  Level FlightAware ADS-B
Mon 08:43:13 PM 46.8170 42.3280 117° Southeast 465 535 37,000  Level FlightAware ADS-B
Mon 08:43:53 PM 46.7750 42.4460 117° Southeast 462 532 37,000  Level FlightAware ADS-B
Mon 08:44:38 PM 46.7310 42.5700 117° Southeast 465 535 37,000  Level FlightAware ADS-B
Mon 08:45:18 PM 46.6960 42.6680 117° Southeast 467 537 37,000  Level FlightAware ADS-B
Mon 08:45:58 PM 46.6500 42.7950 118° Southeast 473 544 37,000  Level FlightAware ADS-B
Mon 08:46:43 PM 46.6070 42.9130 118° Southeast 472 543 37,000  Level FlightAware ADS-B
Mon 08:47:28 PM 46.5600 43.0450 117° Southeast 472 543 37,000  Level FlightAware ADS-B
Mon 08:48:03 PM 46.5270 43.1350 118° Southeast 473 544 37,000  Level FlightAware ADS-B
Mon 08:48:53 PM 46.4750 43.2840 117° Southeast 473 544 37,000  Level FlightAware ADS-B
Mon 08:49:28 PM 46.4500 43.3850 110° East 474 545 37,000  Level FlightAware ADS-B
Mon 08:50:13 PM 46.4170 43.5180 110° East 473 544 37,000  Level FlightAware ADS-B
Mon 08:50:53 PM 46.3870 43.6400 110° East 477 549 37,000  Level FlightAware ADS-B
Mon 08:51:38 PM 46.3550 43.7680 110° East 479 551 37,000  Level FlightAware ADS-B
Mon 08:53:13 PM 46.2850 44.0460 110° East 478 550 37,000  Level FlightAware ADS-B
Mon 08:53:53 PM 46.2590 44.1480 110° East 478 550 37,000  Level FlightAware ADS-B
Mon 08:56:00 PM 46.1534 44.5092 113° Southeast  Level Estimated
Mon 08:57:00 PM 46.1031 44.6793 113° Southeast  Level Estimated
Mon 08:58:00 PM 46.0525 44.8491 113° Southeast  Level Estimated
Mon 08:59:00 PM 46.0017 45.0187 113° Southeast  Level Estimated
Mon 09:00:00 PM 45.9507 45.1879 113° Southeast  Level Estimated
Mon 09:00:18 PM 45.9620 45.2910 113° Southeast 469 540 37,000  Level FlightAware ADS-B
Mon 09:00:58 PM 45.9350 45.3900 111° Southeast 469 540 37,000  Level FlightAware ADS-B
Mon 09:01:38 PM 45.9090 45.4890 111° Southeast 469 540 37,000  Level FlightAware ADS-B
Mon 09:02:13 PM 45.8690 45.6360 111° Southeast 477 549 37,000  Level FlightAware ADS-B
Mon 09:03:03 PM 45.8300 45.7790 111° Southeast 479 551 37,000  Level FlightAware ADS-B
Mon 09:04:03 PM 45.7800 45.9640 111° Southeast 483 556 37,000  Level FlightAware ADS-B
Mon 09:05:03 PM 45.7610 46.0330 112° Southeast 486 559 37,000  Level FlightAware ADS-B
Mon 09:06:58 PM 45.6370 46.4800 114° Southeast 484 557 37,000  Level FlightAware ADS-B
Mon 09:07:00 PM 45.6582 46.3593 114° Southeast  Level Estimated
Mon 09:07:33 PM 45.6090 46.5810 112° Southeast 485 558 37,000  Level FlightAware ADS-B
Mon 09:08:23 PM 45.5640 46.7420 112° Southeast 490 564 37,000  Level FlightAware ADS-B
Mon 09:09:08 PM 45.5260 46.8770 112° Southeast 494 568 37,000  Level FlightAware ADS-B
Mon 09:09:43 PM 45.4970 46.9750 113° Southeast 496 571 37,000  Level FlightAware ADS-B
Mon 09:10:23 PM 45.4970 46.9750 113° Southeast 495 570 37,000  Level FlightAware ADS-B
Mon 09:11:03 PM 45.4280 47.2180 112° Southeast 487 560 37,000  Level FlightAware ADS-B
Mon 09:12:08 PM 45.3720 47.4110 112° Southeast 485 558 37,000  Level FlightAware ADS-B
Mon 09:12:48 PM 45.3430 47.5140 112° Southeast 486 559 37,000  Level FlightAware ADS-B
Mon 09:13:28 PM 45.3030 47.6460 113° Southeast 490 564 37,000  Level FlightAware ADS-B
Mon 09:14:13 PM 45.2630 47.7830 112° Southeast 490 564 37,000  Level FlightAware ADS-B
Mon 09:14:58 PM 45.2270 47.9080 112° Southeast 491 565 37,000  Level FlightAware ADS-B
Mon 09:15:38 PM 45.1900 48.0310 113° Southeast 493 567 37,000  Level FlightAware ADS-B
Mon 09:16:33 PM 45.1420 48.1910 113° Southeast 492 566 37,000  Level FlightAware ADS-B
Mon 09:17:08 PM 45.1080 48.3040 113° Southeast 491 565 37,000  Level FlightAware ADS-B
Mon 09:17:58 PM 45.0640 48.4520 113° Southeast 491 565 37,000  Level FlightAware ADS-B
Mon 09:18:38 PM 45.0280 48.5690 113° Southeast 491 565 37,000  Level FlightAware ADS-B
Mon 09:19:23 PM 44.9880 48.7010 113° Southeast 491 565 37,000  Level FlightAware ADS-B
Mon 09:20:03 PM 44.9520 48.8170 114° Southeast 492 566 37,000  Level FlightAware ADS-B
Mon 09:20:43 PM 44.9160 48.9360 113° Southeast 490 564 37,000  Level FlightAware ADS-B
Mon 09:21:28 PM 44.8760 49.0660 113° Southeast 489 563 37,000  Level FlightAware ADS-B
Mon 09:22:08 PM 44.8390 49.1820 114° Southeast 491 565 37,000  Level FlightAware ADS-B
Mon 09:22:53 PM 44.7980 49.3160 113° Southeast 490 564 37,000  Level FlightAware ADS-B
Mon 09:23:33 PM 44.7650 49.4210 114° Southeast 491 565 37,000  Level FlightAware ADS-B
Mon 09:24:18 PM 44.7110 49.5530 120° Southeast 481 554 37,000  Level FlightAware ADS-B
Mon 09:24:58 PM 44.6580 49.6510 127° Southeast 479 551 37,000  Level FlightAware ADS-B
Mon 09:25:38 PM 44.6050 49.7520 126° Southeast 479 551 37,000  Level FlightAware ADS-B
Mon 09:26:23 PM 44.5430 49.8650 128° Southeast 480 552 37,000  Level FlightAware ADS-B
Mon 09:27:03 PM 44.4900 49.9630 127° Southeast 481 554 37,000  Level FlightAware ADS-B
Mon 09:27:43 PM 44.4360 50.0620 127° Southeast 483 556 37,000  Level FlightAware ADS-B
Mon 09:28:28 PM 44.3750 50.1740 127° Southeast 484 557 37,000  Level FlightAware ADS-B
Mon 09:29:08 PM 44.3200 50.2740 128° Southeast 484 557 37,000  Level FlightAware ADS-B
Mon 09:30:08 PM 44.2390 50.4220 127° Southeast 484 557 37,000  Level FlightAware ADS-B
Mon 09:30:48 PM 44.1870 50.5160 128° Southeast 484 557 37,000  Level FlightAware ADS-B
Mon 09:31:23 PM 44.1440 50.5940 128° Southeast 484 557 37,000  Level FlightAware ADS-B
Mon 09:32:13 PM 44.0870 50.7000 127° Southeast 484 557 37,000  Level FlightAware ADS-B
Mon 09:32:53 PM 44.0410 50.7850 127° Southeast 484 557 37,000  Level FlightAware ADS-B
Mon 09:33:33 PM 43.9950 50.8690 127° Southeast 484 557 37,000  Level FlightAware ADS-B
Mon 09:34:13 PM 43.9500 50.9540 126° Southeast 484 557 37,000  Level FlightAware ADS-B
Mon 09:35:03 PM 43.8920 51.0590 127° Southeast 484 557 37,000  Level FlightAware ADS-B
Mon 09:35:43 PM 43.8460 51.1430 127° Southeast 484 557 37,000  Level FlightAware ADS-B
Mon 09:36:23 PM 43.8010 51.2280 126° Southeast 484 557 37,000  Level FlightAware ADS-B
Mon 09:37:03 PM 43.7550 51.3120 127° Southeast 484 557 37,000  Level FlightAware ADS-B
Mon 09:37:43 PM 43.7090 51.3960 127° Southeast 484 557 37,000  Level FlightAware ADS-B
Mon 09:38:23 PM 43.6630 51.4800 127° Southeast 484 557 37,000  Level FlightAware ADS-B
Mon 09:39:13 PM 43.6060 51.5850 127° Southeast 484 557 37,000  Level FlightAware ADS-B
Mon 09:39:53 PM 43.5600 51.6690 127° Southeast 484 557 37,000  Level FlightAware ADS-B
Mon 09:40:33 PM 43.5140 51.7530 127° Southeast 484 557 37,000 12 Level FlightAware ADS-B
Mon 09:43:00 PM 43.3656 52.1342 118° Southeast  Level Estimated
Mon 09:44:00 PM 43.3046 52.2893 118° Southeast  Level Estimated
Mon 09:45:00 PM 43.2435 52.4440 118° Southeast  Level Estimated
Mon 09:46:00 PM 43.1822 52.5985 119° Southeast  Level Estimated
Mon 09:47:00 PM 43.1206 52.7526 119° Southeast  Level Estimated
Mon 09:48:00 PM 43.0588 52.9064 119° Southeast  Level Estimated
Mon 09:49:00 PM 42.9968 53.0599 119° Southeast  Level Estimated
Mon 09:50:00 PM 42.9347 53.2131 119° Southeast  Level Estimated
Mon 09:51:00 PM 42.8723 53.3660 119° Southeast  Level Estimated
Mon 09:52:00 PM 42.8097 53.5186 119° Southeast  Level Estimated
Mon 09:53:00 PM 42.7469 53.6709 119° Southeast  Level Estimated
Mon 09:54:00 PM 42.6839 53.8228 119° Southeast  Level Estimated
Mon 09:55:00 PM 42.6207 53.9745 119° Southeast  Level Estimated
Mon 09:56:00 PM 42.5573 54.1258 120° Southeast  Level Estimated
Mon 09:57:00 PM 42.4938 54.2769 120° Southeast  Level Estimated
Mon 09:58:00 PM 42.4300 54.4276 120° Southeast  Level Estimated
Mon 09:59:00 PM 42.3660 54.5780 120° Southeast  Level Estimated
Mon 10:00:00 PM 42.3018 54.7282 120° Southeast  Level Estimated
Mon 10:01:00 PM 42.2374 54.8780 120° Southeast  Level Estimated
Mon 10:02:00 PM 42.1729 55.0275 120° Southeast  Level Estimated
Mon 10:03:00 PM 42.1081 55.1767 120° Southeast  Level Estimated
Mon 10:04:00 PM 42.0431 55.3256 120° Southeast  Level Estimated
Mon 10:05:00 PM 41.9780 55.4742 120° Southeast  Level Estimated
Mon 10:06:00 PM 41.9127 55.6225 121° Southeast  Level Estimated
Mon 10:07:00 PM 41.8471 55.7704 121° Southeast  Level Estimated
Mon 10:08:00 PM 41.7814 55.9181 121° Southeast  Level Estimated
Mon 10:09:00 PM 41.7155 56.0655 121° Southeast  Level Estimated
Mon 10:10:00 PM 41.6494 56.2126 121° Southeast  Level Estimated
Mon 10:11:00 PM 41.5831 56.3593 121° Southeast  Level Estimated
Mon 10:12:00 PM 41.5166 56.5058 121° Southeast  Level Estimated
Mon 10:13:00 PM 41.4500 56.6520 121° Southeast  Level Estimated
Mon 10:14:00 PM 41.3831 56.7979 121° Southeast  Level Estimated
Mon 10:15:00 PM 41.3161 56.9434 121° Southeast  Level Estimated
Mon 10:16:00 PM 41.2489 57.0887 122° Southeast  Level Estimated
Mon 10:17:00 PM 41.1815 57.2337 122° Southeast  Level Estimated
Mon 10:18:00 PM 41.1140 57.3783 122° Southeast  Level Estimated
Mon 10:19:00 PM 41.0462 57.5227 122° Southeast  Level Estimated
Mon 10:20:00 PM 40.9783 57.6668 122° Southeast  Level Estimated
Mon 10:21:00 PM 40.9102 57.8106 122° Southeast  Level Estimated
Mon 10:22:00 PM 40.8419 57.9541 122° Southeast  Level Estimated
Mon 10:23:00 PM 40.7734 58.0973 122° Southeast  Level Estimated
Mon 10:24:00 PM 40.7048 58.2402 122° Southeast  Level Estimated
Mon 10:25:00 PM 40.6360 58.3828 122° Southeast  Level Estimated
Mon 10:26:00 PM 40.5670 58.5251 123° Southeast  Level Estimated
Mon 10:27:00 PM 40.4978 58.6671 123° Southeast  Level Estimated
Mon 10:28:00 PM 40.4285 58.8088 123° Southeast  Level Estimated
Mon 10:29:00 PM 40.3590 58.9502 123° Southeast  Level Estimated
Mon 10:30:00 PM 40.2893 59.0914 123° Southeast  Level Estimated
Mon 10:31:00 PM 40.2194 59.2322 123° Southeast  Level Estimated
Mon 10:32:00 PM 40.1494 59.3728 123° Southeast  Level Estimated
Mon 10:33:00 PM 40.0792 59.5130 123° Southeast  Level Estimated
Mon 10:34:00 PM 40.0088 59.6530 123° Southeast  Level Estimated
Mon 10:35:00 PM 39.9383 59.7927 123° Southeast  Level Estimated
Mon 10:36:00 PM 39.8676 59.9321 123° Southeast  Level Estimated
Mon 10:37:00 PM 39.7967 60.0712 124° Southeast  Level Estimated
Mon 10:38:00 PM 39.7257 60.2100 124° Southeast  Level Estimated
Mon 10:39:00 PM 39.6545 60.3486 124° Southeast  Level Estimated
Mon 10:40:00 PM 39.5831 60.4868 124° Southeast  Level Estimated
Mon 10:41:00 PM 39.5116 60.6248 124° Southeast  Level Estimated
Mon 10:42:00 PM 39.4399 60.7625 124° Southeast  Level Estimated
Mon 10:43:00 PM 39.3681 60.8999 124° Southeast  Level Estimated
Mon 10:44:00 PM 39.2961 61.0370 124° Southeast  Level Estimated
Mon 10:45:00 PM 39.2239 61.1738 124° Southeast  Level Estimated
Mon 10:46:00 PM 39.1516 61.3104 124° Southeast  Level Estimated
Mon 10:47:00 PM 39.0791 61.4467 124° Southeast  Level Estimated
Mon 10:48:00 PM 39.0064 61.5826 124° Southeast  Level Estimated
Mon 10:49:00 PM 38.9336 61.7184 125° Southeast  Level Estimated
Mon 10:50:00 PM 38.8606 61.8538 125° Southeast  Level Estimated
Mon 10:51:00 PM 38.7875 61.9890 125° Southeast  Level Estimated
Mon 10:52:00 PM 38.7143 62.1238 125° Southeast  Level Estimated
Mon 10:53:00 PM 38.6408 62.2584 125° Southeast  Level Estimated
Mon 10:54:00 PM 38.5672 62.3928 125° Southeast  Level Estimated
Mon 10:55:00 PM 38.4935 62.5268 125° Southeast  Level Estimated
Mon 10:56:00 PM 38.4196 62.6606 125° Southeast  Level Estimated
Mon 10:57:00 PM 38.3456 62.7941 125° Southeast  Level Estimated
Mon 10:58:00 PM 38.2714 62.9273 125° Southeast  Level Estimated
Mon 10:59:00 PM 38.1970 63.0603 125° Southeast  Level Estimated
Mon 11:00:00 PM 38.1226 63.1930 125° Southeast  Level Estimated
Mon 11:01:00 PM 38.0479 63.3254 126° Southeast  Level Estimated
Mon 11:02:00 PM 37.9731 63.4576 126° Southeast  Level Estimated
Mon 11:03:00 PM 37.8982 63.5894 126° Southeast  Level Estimated
Mon 11:04:00 PM 37.8231 63.7211 126° Southeast  Level Estimated
Mon 11:05:00 PM 37.7479 63.8524 126° Southeast  Level Estimated
Mon 11:06:00 PM 37.6725 63.9835 126° Southeast  Level Estimated
Mon 11:07:00 PM 37.5970 64.1143 126° Southeast  Level Estimated
Mon 11:08:00 PM 37.5213 64.2448 126° Southeast  Level Estimated
Mon 11:09:00 PM 37.4455 64.3751 126° Southeast  Level Estimated
Mon 11:10:00 PM 37.3696 64.5051 126° Southeast  Level Estimated
Mon 11:11:00 PM 37.2935 64.6349 126° Southeast  Level Estimated
Mon 11:12:00 PM 37.2173 64.7644 126° Southeast  Level Estimated
Mon 11:13:00 PM 37.1409 64.8936 127° Southeast  Level Estimated
Mon 11:14:00 PM 37.0644 65.0226 127° Southeast  Level Estimated
Mon 11:15:00 PM 36.9877 65.1513 127° Southeast  Level Estimated
Mon 11:16:00 PM 36.9109 65.2797 127° Southeast  Level Estimated
Mon 11:17:00 PM 36.8340 65.4079 127° Southeast  Level Estimated
Mon 11:18:00 PM 36.7569 65.5358 127° Southeast  Level Estimated
Mon 11:19:00 PM 36.6797 65.6635 127° Southeast  Level Estimated
Mon 11:20:00 PM 36.6024 65.7909 127° Southeast  Level Estimated
Mon 11:21:00 PM 36.5249 65.9181 127° Southeast  Level Estimated
Mon 11:22:00 PM 36.4473 66.0450 127° Southeast  Level Estimated
Mon 11:23:00 PM 36.3696 66.1717 127° Southeast  Level Estimated
Mon 11:24:00 PM 36.2917 66.2980 127° Southeast  Level Estimated
Mon 11:25:00 PM 36.2137 66.4242 127° Southeast  Level Estimated
Mon 11:26:00 PM 36.1355 66.5501 128° Southeast  Level Estimated
Mon 11:27:00 PM 36.0573 66.6758 128° Southeast  Level Estimated
Mon 11:28:00 PM 35.9789 66.8011 128° Southeast  Level Estimated
Mon 11:29:00 PM 35.9003 66.9263 128° Southeast  Level Estimated
Mon 11:30:00 PM 35.8217 67.0512 128° Southeast  Level Estimated
Mon 11:31:00 PM 35.7429 67.1758 128° Southeast  Level Estimated
Mon 11:32:00 PM 35.6640 67.3002 128° Southeast  Level Estimated
Mon 11:33:00 PM 35.5849 67.4244 128° Southeast  Level Estimated
Mon 11:34:00 PM 35.5057 67.5483 128° Southeast  Level Estimated
Mon 11:35:00 PM 35.4264 67.6720 128° Southeast  Level Estimated
Mon 11:36:00 PM 35.3470 67.7954 128° Southeast  Level Estimated
Mon 11:37:00 PM 35.2675 67.9186 128° Southeast  Level Estimated
Mon 11:38:00 PM 35.1878 68.0415 128° Southeast  Level Estimated
Mon 11:39:00 PM 35.1080 68.1642 128° Southeast  Level Estimated
Mon 11:40:00 PM 35.0280 68.2867 129° Southeast  Level Estimated
Mon 11:41:00 PM 34.9480 68.4089 129° Southeast  Level Estimated
Mon 11:42:00 PM 34.8678 68.5309 129° Southeast  Level Estimated
Mon 11:43:00 PM 34.7875 68.6526 129° Southeast  Level Estimated
Mon 11:44:00 PM 34.7071 68.7741 129° Southeast  Level Estimated
Mon 11:45:00 PM 34.6266 68.8954 129° Southeast  Level Estimated
Mon 11:46:00 PM 34.5460 69.0165 129° Southeast  Level Estimated
Mon 11:47:00 PM 34.4652 69.1373 129° Southeast  Level Estimated
Mon 11:48:00 PM 34.3843 69.2578 129° Southeast  Level Estimated
Mon 11:49:00 PM 34.3033 69.3782 129° Southeast  Level Estimated
Mon 11:50:00 PM 34.2221 69.4983 129° Southeast  Level Estimated
Mon 11:51:00 PM 34.1409 69.6181 129° Southeast  Level Estimated
Mon 11:52:00 PM 34.0596 69.7378 129° Southeast  Level Estimated
Mon 11:53:00 PM 33.9781 69.8572 129° Southeast  Level Estimated
Mon 11:54:00 PM 33.8965 69.9764 129° Southeast  Level Estimated
Mon 11:55:00 PM 33.8148 70.0953 130° Southeast  Level Estimated
Mon 11:56:00 PM 33.7330 70.2140 130° Southeast  Level Estimated
Mon 11:57:00 PM 33.6510 70.3325 130° Southeast  Level Estimated
Mon 11:58:00 PM 33.5690 70.4508 130° Southeast  Level Estimated
Mon 11:59:00 PM 33.4868 70.5689 130° Southeast  Level Estimated
Tue 12:00:00 AM 33.4046 70.6867 130° Southeast  Level Estimated
Tue 12:01:00 AM 33.3222 70.8043 130° Southeast  Level Estimated
Tue 12:02:00 AM 33.2397 70.9217 130° Southeast  Level Estimated
Tue 12:03:00 AM 33.1571 71.0388 130° Southeast  Level Estimated
Tue 12:04:00 AM 33.0744 71.1558 130° Southeast  Level Estimated
Tue 12:05:00 AM 32.9916 71.2725 130° Southeast  Level Estimated
Tue 12:06:00 AM 32.9086 71.3890 130° Southeast  Level Estimated
Tue 12:07:00 AM 32.8256 71.5053 130° Southeast  Level Estimated
Tue 12:08:00 AM 32.7425 71.6213 130° Southeast  Level Estimated
Tue 12:09:00 AM 32.6592 71.7372 130° Southeast  Level Estimated
Tue 12:10:00 AM 32.5759 71.8528 131° Southeast  Level Estimated
Tue 12:11:00 AM 32.4924 71.9682 131° Southeast  Level Estimated
Tue 12:12:00 AM 32.4088 72.0834 131° Southeast  Level Estimated
Tue 12:13:00 AM 32.3251 72.1984 131° Southeast  Level Estimated
Tue 12:14:00 AM 32.2414 72.3132 131° Southeast  Level Estimated
Tue 12:15:00 AM 32.1575 72.4278 131° Southeast  Level Estimated
Tue 12:16:00 AM 32.0735 72.5421 131° Southeast  Level Estimated
Tue 12:17:00 AM 31.9894 72.6563 131° Southeast  Level Estimated
Tue 12:18:00 AM 31.9053 72.7702 131° Southeast  Level Estimated
Tue 12:19:00 AM 31.8210 72.8840 131° Southeast  Level Estimated
Tue 12:20:00 AM 31.7366 72.9975 131° Southeast  Level Estimated
Tue 12:21:00 AM 31.6521 73.1108 131° Southeast  Level Estimated
Tue 12:22:00 AM 31.5675 73.2239 131° Southeast  Level Estimated
Tue 12:22:53 AM 28.5380 72.2300 131° Southeast 522 601 39,000  Level FlightAware ADS-B
Tue 12:23:00 AM 31.4828 73.3368 131° Southeast  Level Estimated
Tue 12:23:33 AM 28.4900 72.3290 119° Southeast 532 612 39,000  Level FlightAware ADS-B
Tue 12:24:28 AM 28.4410 72.4730 111° Southeast 543 625 39,000  Level FlightAware ADS-B
Tue 12:25:13 AM 28.4170 72.6000 102° East 553 636 39,000  Level FlightAware ADS-B
Tue 12:25:53 AM 28.4010 72.7070 100° East 554 638 39,000  Level FlightAware ADS-B
Tue 12:26:38 AM 28.3810 72.8430 99° East 554 638 39,000  Level FlightAware ADS-B
Tue 12:27:18 AM 28.3680 72.9510 98° East 557 641 39,000  Level FlightAware ADS-B
Tue 12:27:58 AM 28.3560 73.0710 96° East 558 642 39,000  Level FlightAware ADS-B
Tue 12:28:43 AM 28.3410 73.2020 97° East 559 643 39,000  Level FlightAware ADS-B
Tue 12:29:23 AM 28.3270 73.3220 98° East 559 643 39,000  Level FlightAware ADS-B
Tue 12:30:18 AM 28.3100 73.4740 97° East 557 641 39,000  Level FlightAware ADS-B
Tue 12:30:58 AM 28.2990 73.5730 97° East 557 641 39,000  Level FlightAware ADS-B
Tue 12:31:38 AM 28.2880 73.6710 97° East 557 641 39,000  Level FlightAware ADS-B
Tue 12:32:28 AM 28.2750 73.7950 97° East 557 641 39,000  Level FlightAware ADS-B
Tue 12:33:03 AM 28.2540 73.9360 100° East 557 641 39,000  Level FlightAware ADS-B
Tue 12:33:43 AM 28.2420 74.0340 98° East 557 641 39,000  Level FlightAware ADS-B
Tue 12:34:23 AM 28.2270 74.1570 98° East 556 640 39,000  Level FlightAware ADS-B
Tue 12:35:08 AM 28.2120 74.2780 98° East 554 638 39,000  Level FlightAware ADS-B
Tue 12:35:53 AM 28.1940 74.4210 98° East 550 633 39,000  Level FlightAware ADS-B
Tue 12:36:28 AM 28.1830 74.5110 98° East 550 633 39,000  Level FlightAware ADS-B
Tue 12:37:18 AM 28.1660 74.6460 98° East 550 633 39,000  Level FlightAware ADS-B
Tue 12:38:03 AM 28.1440 74.8140 98° East 550 633 39,000  Level FlightAware ADS-B
Tue 12:38:43 AM 28.1340 74.8960 98° East 549 632 39,000  Level FlightAware ADS-B
Tue 12:39:38 AM 28.1090 75.0870 98° East 549 632 39,000  Level FlightAware ADS-B
Tue 12:40:23 AM 28.0970 75.1800 98° East 552 635 39,000  Level FlightAware ADS-B
Tue 12:41:03 AM 28.0800 75.3060 99° East 553 636 39,000  Level FlightAware ADS-B
Tue 12:41:53 AM 28.0630 75.4350 98° East 555 639 39,000  Level FlightAware ADS-B
Tue 12:42:43 AM 28.0440 75.5780 99° East 556 640 39,000  Level FlightAware ADS-B
Tue 12:43:18 AM 28.0310 75.6760 99° East 557 641 39,000  Level FlightAware ADS-B
Tue 12:44:03 AM 28.0140 75.8080 98° East 558 642 39,000  Level FlightAware ADS-B
Tue 12:44:48 AM 27.9940 75.9500 99° East 558 642 39,000  Level FlightAware ADS-B
Tue 12:45:28 AM 27.9780 76.0680 99° East 557 641 39,000  Level FlightAware ADS-B
Tue 12:46:13 AM 27.9620 76.1840 99° East 557 641 39,000  Level FlightAware ADS-B
Tue 12:46:53 AM 27.9450 76.3090 99° East 559 643 39,000  Level FlightAware ADS-B
Tue 12:47:33 AM 27.9290 76.4180 99° East 560 644 39,000  Level FlightAware ADS-B
Tue 12:48:08 AM 27.9150 76.5210 99° East 560 644 39,000  Level FlightAware ADS-B
Tue 12:48:53 AM 27.8960 76.6550 99° East 562 647 39,000  Level FlightAware ADS-B
Tue 12:49:43 AM 27.8770 76.7880 99° East 562 647 39,000  Level FlightAware ADS-B
Tue 12:50:13 AM 27.8620 76.8900 99° East 561 646 39,000  Level FlightAware ADS-B
Tue 12:50:58 AM 27.8440 77.0170 99° East 559 643 39,000  Level FlightAware ADS-B
Tue 12:51:48 AM 27.8240 77.1570 99° East 558 642 39,000  Level FlightAware ADS-B
Tue 12:52:18 AM 27.8130 77.2330 99° East 559 643 39,000  Level FlightAware ADS-B
Tue 12:53:13 AM 27.7890 77.3920 100° East 562 647 39,000  Level FlightAware ADS-B
Tue 12:54:08 AM 27.7640 77.5620 99° East 562 647 39,000  Level FlightAware ADS-B
Tue 12:54:48 AM 27.7460 77.6800 100° East 560 644 39,000  Level FlightAware ADS-B
Tue 12:55:33 AM 27.7050 77.8060 110° East 537 618 39,000  Level FlightAware ADS-B
Tue 12:56:13 AM 27.6550 77.8680 132° Southeast 516 594 39,000  Level FlightAware ADS-B
Tue 12:56:53 AM 27.5670 77.9350 146° Southeast 505 581 39,000  Level FlightAware ADS-B
Tue 12:57:28 AM 27.4950 77.9890 146° Southeast 507 583 39,000  Level FlightAware ADS-B
Tue 12:58:18 AM 27.4080 78.0540 146° Southeast 507 583 39,000  Level FlightAware ADS-B
Tue 12:58:58 AM 27.3310 78.1110 147° Southeast 507 583 39,000  Level FlightAware ADS-B
Tue 12:59:38 AM 27.2380 78.1790 147° Southeast 507 583 39,000  Level FlightAware ADS-B
Tue 01:00:23 AM 27.1500 78.2430 147° Southeast 507 583 39,000  Level FlightAware ADS-B
Tue 01:01:08 AM 27.0650 78.3060 147° Southeast 505 581 39,000  Level FlightAware ADS-B
Tue 01:01:48 AM 26.9990 78.3560 146° Southeast 505 581 39,000  Level FlightAware ADS-B
Tue 01:02:28 AM 26.9340 78.4060 146° Southeast 505 581 39,000  Level FlightAware ADS-B
Tue 01:03:08 AM 26.8680 78.4550 146° Southeast 505 581 39,000  Level FlightAware ADS-B
Tue 01:03:48 AM 26.8020 78.5050 146° Southeast 505 581 39,000  Level FlightAware ADS-B
Tue 01:04:48 AM 26.7030 78.5800 146° Southeast 505 581 39,000  Level FlightAware ADS-B
Tue 01:05:28 AM 26.6370 78.6290 146° Southeast 505 581 39,000  Level FlightAware ADS-B
Tue 01:06:18 AM 26.5550 78.6920 145° Southeast 505 581 39,000  Level FlightAware ADS-B
Tue 01:06:58 AM 26.4890 78.7410 146° Southeast 505 581 39,000  Level FlightAware ADS-B
Tue 01:07:38 AM 26.4230 78.7910 146° Southeast 505 581 39,000  Level FlightAware ADS-B
Tue 01:08:18 AM 26.3570 78.8400 146° Southeast 505 581 39,000  Level FlightAware ADS-B
Tue 01:08:58 AM 26.2910 78.8900 146° Southeast 505 581 39,000  Level FlightAware ADS-B
Tue 01:09:48 AM 26.2090 78.9520 146° Southeast 505 581 39,000  Level FlightAware ADS-B
Tue 01:10:28 AM 26.1430 79.0010 146° Southeast 505 581 39,000  Level FlightAware ADS-B
Tue 01:13:00 AM 25.9202 79.2639 133° Southeast  Level Estimated
Tue 01:14:00 AM 25.8321 79.3674 133° Southeast  Level Estimated
Tue 01:15:00 AM 25.7439 79.4708 133° Southeast  Level Estimated
Tue 01:16:00 AM 25.6557 79.5740 133° Southeast  Level Estimated
Tue 01:17:00 AM 25.5674 79.6770 134° Southeast  Level Estimated
Tue 01:18:00 AM 25.4790 79.7799 134° Southeast  Level Estimated
Tue 01:19:00 AM 25.3905 79.8827 134° Southeast  Level Estimated
Tue 01:20:00 AM 25.3020 79.9853 134° Southeast  Level Estimated
Tue 01:21:00 AM 25.2134 80.0877 134° Southeast  Level Estimated
Tue 01:22:00 AM 25.1247 80.1900 134° Southeast  Level Estimated
Tue 01:23:00 AM 25.0360 80.2922 134° Southeast  Level Estimated
Tue 01:24:00 AM 24.9472 80.3942 134° Southeast  Level Estimated
Tue 01:25:00 AM 24.8583 80.4960 134° Southeast  Level Estimated
Tue 01:26:00 AM 24.7693 80.5977 134° Southeast  Level Estimated
Tue 01:27:00 AM 24.6803 80.6993 134° Southeast  Level Estimated
Tue 01:28:00 AM 24.5912 80.8007 134° Southeast  Level Estimated
Tue 01:29:00 AM 24.5021 80.9020 134° Southeast  Level Estimated
Tue 01:30:00 AM 24.4129 81.0031 134° Southeast  Level Estimated
Tue 01:31:00 AM 24.3236 81.1041 134° Southeast  Level Estimated
Tue 01:32:00 AM 24.2342 81.2050 134° Southeast  Level Estimated
Tue 01:33:00 AM 24.1448 81.3057 134° Southeast  Level Estimated
Tue 01:34:00 AM 24.0553 81.4062 134° Southeast  Level Estimated
Tue 01:35:00 AM 23.9658 81.5066 134° Southeast  Level Estimated
Tue 01:36:00 AM 23.8762 81.6069 134° Southeast  Level Estimated
Tue 01:37:00 AM 23.7865 81.7071 134° Southeast  Level Estimated
Tue 01:38:00 AM 23.6967 81.8071 134° Southeast  Level Estimated
Tue 01:39:00 AM 23.6069 81.9069 134° Southeast  Level Estimated
Tue 01:40:00 AM 23.5170 82.0067 134° Southeast  Level Estimated
Tue 01:41:00 AM 23.4271 82.1063 135° Southeast  Level Estimated
Tue 01:42:00 AM 23.3371 82.2057 135° Southeast  Level Estimated
Tue 01:43:00 AM 23.2470 82.3050 135° Southeast  Level Estimated
Tue 01:44:00 AM 23.1569 82.4042 135° Southeast  Level Estimated
Tue 01:45:00 AM 23.0667 82.5033 135° Southeast  Level Estimated
Tue 01:46:00 AM 22.9765 82.6022 135° Southeast  Level Estimated
Tue 01:47:00 AM 22.8862 82.7010 135° Southeast  Level Estimated
Tue 01:48:00 AM 22.7958 82.7997 135° Southeast  Level Estimated
Tue 01:49:00 AM 22.7054 82.8982 135° Southeast  Level Estimated
Tue 01:50:00 AM 22.6149 82.9966 135° Southeast  Level Estimated
Tue 01:51:00 AM 22.5243 83.0949 135° Southeast  Level Estimated
Tue 01:52:00 AM 22.4337 83.1930 135° Southeast  Level Estimated
Tue 01:53:00 AM 22.3431 83.2910 135° Southeast  Level Estimated
Tue 01:54:00 AM 22.2523 83.3889 135° Southeast  Level Estimated
Tue 01:55:00 AM 22.1615 83.4867 135° Southeast  Level Estimated
Tue 01:56:00 AM 22.0707 83.5843 135° Southeast  Level Estimated
Tue 01:57:00 AM 21.9798 83.6818 135° Southeast  Level Estimated
Tue 01:58:00 AM 21.8888 83.7792 135° Southeast  Level Estimated
Tue 01:59:00 AM 21.7978 83.8764 135° Southeast  Level Estimated
Tue 02:00:00 AM 21.7067 83.9736 135° Southeast  Level Estimated
Tue 02:01:00 AM 21.6156 84.0706 135° Southeast  Level Estimated
Tue 02:02:00 AM 21.5244 84.1675 135° Southeast  Level Estimated
Tue 02:03:00 AM 21.4332 84.2643 135° Southeast  Level Estimated
Tue 02:04:00 AM 21.3419 84.3609 135° Southeast  Level Estimated
Tue 02:05:00 AM 21.2505 84.4574 135° Southeast  Level Estimated
Tue 02:06:00 AM 21.1591 84.5538 135° Southeast  Level Estimated
Tue 02:07:00 AM 21.0677 84.6501 136° Southeast  Level Estimated
Tue 02:08:00 AM 20.9761 84.7463 136° Southeast  Level Estimated
Tue 02:09:00 AM 20.8846 84.8423 136° Southeast  Level Estimated
Tue 02:10:00 AM 20.7929 84.9383 136° Southeast  Level Estimated
Tue 02:11:00 AM 20.7013 85.0341 136° Southeast  Level Estimated
Tue 02:12:00 AM 20.6095 85.1298 136° Southeast  Level Estimated
Tue 02:13:00 AM 20.5177 85.2254 136° Southeast  Level Estimated
Tue 02:14:00 AM 20.4259 85.3209 136° Southeast  Level Estimated
Tue 02:15:00 AM 20.3340 85.4162 136° Southeast  Level Estimated
Tue 02:16:00 AM 20.2421 85.5115 136° Southeast  Level Estimated
Tue 02:17:00 AM 20.1501 85.6066 136° Southeast  Level Estimated
Tue 02:18:00 AM 20.0581 85.7016 136° Southeast  Level Estimated
Tue 02:19:00 AM 19.9660 85.7965 136° Southeast  Level Estimated
Tue 02:20:00 AM 19.8738 85.8913 136° Southeast  Level Estimated
Tue 02:21:00 AM 19.7816 85.9860 136° Southeast  Level Estimated
Tue 02:22:00 AM 19.6894 86.0806 136° Southeast  Level Estimated
Tue 02:23:00 AM 19.5971 86.1751 136° Southeast  Level Estimated
Tue 02:24:00 AM 19.5048 86.2694 136° Southeast  Level Estimated
Tue 02:25:00 AM 19.4124 86.3637 136° Southeast  Level Estimated
Tue 02:26:00 AM 19.3199 86.4578 136° Southeast  Level Estimated
Tue 02:27:00 AM 19.2274 86.5519 136° Southeast  Level Estimated
Tue 02:28:00 AM 19.1349 86.6458 136° Southeast  Level Estimated
Tue 02:29:00 AM 19.0423 86.7396 136° Southeast  Level Estimated
Tue 02:30:00 AM 18.9497 86.8334 136° Southeast  Level Estimated
Tue 02:31:00 AM 18.8570 86.9270 136° Southeast  Level Estimated
Tue 02:32:00 AM 18.7643 87.0205 136° Southeast  Level Estimated
Tue 02:33:00 AM 18.6715 87.1139 136° Southeast  Level Estimated
Tue 02:34:00 AM 18.5787 87.2072 136° Southeast  Level Estimated
Tue 02:35:00 AM 18.4858 87.3004 136° Southeast  Level Estimated
Tue 02:36:00 AM 18.3929 87.3935 136° Southeast  Level Estimated
Tue 02:37:00 AM 18.3000 87.4865 136° Southeast  Level Estimated
Tue 02:38:00 AM 18.2070 87.5795 136° Southeast  Level Estimated
Tue 02:39:00 AM 18.1139 87.6723 137° Southeast  Level Estimated
Tue 02:40:00 AM 18.0208 87.7650 137° Southeast  Level Estimated
Tue 02:41:00 AM 17.9277 87.8576 137° Southeast  Level Estimated
Tue 02:42:00 AM 17.8345 87.9501 137° Southeast  Level Estimated
Tue 02:43:00 AM 17.7413 88.0425 137° Southeast  Level Estimated
Tue 02:44:00 AM 17.6481 88.1348 137° Southeast  Level Estimated
Tue 02:45:00 AM 17.5548 88.2271 137° Southeast  Level Estimated
Tue 02:46:00 AM 17.4614 88.3192 137° Southeast  Level Estimated
Tue 02:47:00 AM 17.3680 88.4112 137° Southeast  Level Estimated
Tue 02:48:00 AM 17.2746 88.5032 137° Southeast  Level Estimated
Tue 02:49:00 AM 17.1811 88.5950 137° Southeast  Level Estimated
Tue 02:50:00 AM 17.0876 88.6868 137° Southeast  Level Estimated
Tue 02:51:00 AM 16.9940 88.7785 137° Southeast  Level Estimated
Tue 02:52:00 AM 16.9004 88.8701 137° Southeast  Level Estimated
Tue 02:53:00 AM 16.8068 88.9615 137° Southeast  Level Estimated
Tue 02:54:00 AM 16.7131 89.0529 137° Southeast  Level Estimated
Tue 02:55:00 AM 16.6194 89.1442 137° Southeast  Level Estimated
Tue 02:56:00 AM 16.5256 89.2355 137° Southeast  Level Estimated
Tue 02:57:00 AM 16.4318 89.3266 137° Southeast  Level Estimated
Tue 02:58:00 AM 16.3380 89.4176 137° Southeast  Level Estimated
Tue 02:59:00 AM 16.2441 89.5086 137° Southeast  Level Estimated
Tue 03:00:00 AM 16.1502 89.5994 137° Southeast  Level Estimated
Tue 03:01:00 AM 16.0562 89.6902 137° Southeast  Level Estimated
Tue 03:02:00 AM 15.9623 89.7809 137° Southeast  Level Estimated
Tue 03:03:00 AM 15.8682 89.8715 137° Southeast  Level Estimated
Tue 03:04:00 AM 15.7742 89.9620 137° Southeast  Level Estimated
Tue 03:05:00 AM 15.6801 90.0525 137° Southeast  Level Estimated
Tue 03:06:00 AM 15.5859 90.1428 137° Southeast  Level Estimated
Tue 03:07:00 AM 15.4917 90.2331 137° Southeast  Level Estimated
Tue 03:08:00 AM 15.3975 90.3233 137° Southeast  Level Estimated
Tue 03:09:00 AM 15.3033 90.4134 137° Southeast  Level Estimated
Tue 03:10:00 AM 15.2090 90.5034 137° Southeast  Level Estimated
Tue 03:11:00 AM 15.1147 90.5934 137° Southeast  Level Estimated
Tue 03:12:00 AM 15.0203 90.6833 137° Southeast  Level Estimated
Tue 03:13:00 AM 14.9259 90.7730 137° Southeast  Level Estimated
Tue 03:14:00 AM 14.8315 90.8627 137° Southeast  Level Estimated
Tue 03:15:00 AM 14.7370 90.9524 137° Southeast  Level Estimated
Tue 03:16:00 AM 14.6425 91.0419 137° Southeast  Level Estimated
Tue 03:17:00 AM 14.5480 91.1314 137° Southeast  Level Estimated
Tue 03:18:00 AM 14.4534 91.2208 138° Southeast  Level Estimated
Tue 03:19:00 AM 14.3588 91.3101 138° Southeast  Level Estimated
Tue 03:20:00 AM 14.2642 91.3994 138° Southeast  Level Estimated
Tue 03:21:00 AM 14.1695 91.4885 138° Southeast  Level Estimated
Tue 03:22:00 AM 14.0748 91.5777 138° Southeast  Level Estimated
Tue 03:23:00 AM 13.9801 91.6667 138° Southeast  Level Estimated
Tue 03:24:00 AM 13.8853 91.7556 138° Southeast  Level Estimated
Tue 03:25:00 AM 13.7905 91.8445 138° Southeast  Level Estimated
Tue 03:26:00 AM 13.6957 91.9333 138° Southeast  Level Estimated
Tue 03:27:00 AM 13.6008 92.0221 138° Southeast  Level Estimated
Tue 03:28:00 AM 13.5059 92.1107 138° Southeast  Level Estimated
Tue 03:29:00 AM 13.4110 92.1993 138° Southeast  Level Estimated
Tue 03:30:00 AM 13.3161 92.2878 138° Southeast  Level Estimated
Tue 03:31:00 AM 13.2211 92.3763 138° Southeast  Level Estimated
Tue 03:32:00 AM 13.1261 92.4647 138° Southeast  Level Estimated
Tue 03:33:00 AM 13.0310 92.5530 138° Southeast  Level Estimated
Tue 03:34:00 AM 12.9360 92.6412 138° Southeast  Level Estimated
Tue 03:35:00 AM 12.8409 92.7294 138° Southeast  Level Estimated
Tue 03:36:00 AM 12.7458 92.8175 138° Southeast  Level Estimated
Tue 03:37:00 AM 12.6506 92.9056 138° Southeast  Level Estimated
Tue 03:38:00 AM 12.5554 92.9936 138° Southeast  Level Estimated
Tue 03:39:00 AM 12.4602 93.0815 138° Southeast  Level Estimated
Tue 03:40:00 AM 12.3649 93.1693 138° Southeast  Level Estimated
Tue 03:41:00 AM 12.2697 93.2571 138° Southeast  Level Estimated
Tue 03:42:00 AM 12.1743 93.3449 138° Southeast  Level Estimated
Tue 03:43:00 AM 12.0790 93.4325 138° Southeast  Level Estimated
Tue 03:44:00 AM 11.9837 93.5201 138° Southeast  Level Estimated
Tue 03:45:00 AM 11.8883 93.6077 138° Southeast  Level Estimated
Tue 03:46:00 AM 11.7928 93.6951 138° Southeast  Level Estimated
Tue 03:47:00 AM 11.6974 93.7826 138° Southeast  Level Estimated
Tue 03:48:00 AM 11.6019 93.8699 138° Southeast  Level Estimated
Tue 03:49:00 AM 11.5064 93.9572 138° Southeast  Level Estimated
Tue 03:50:00 AM 11.4109 94.0445 138° Southeast  Level Estimated
Tue 03:51:00 AM 11.3154 94.1316 138° Southeast  Level Estimated
Tue 03:52:00 AM 11.2198 94.2188 138° Southeast  Level Estimated
Tue 03:53:00 AM 11.1242 94.3058 138° Southeast  Level Estimated
Tue 03:54:00 AM 11.0286 94.3928 138° Southeast  Level Estimated
Tue 03:55:00 AM 10.9329 94.4798 138° Southeast  Level Estimated
Tue 03:56:00 AM 10.8373 94.5667 138° Southeast  Level Estimated
Tue 03:57:00 AM 10.7416 94.6535 138° Southeast  Level Estimated
Tue 03:58:00 AM 10.6459 94.7403 138° Southeast  Level Estimated
Tue 03:59:00 AM 10.5501 94.8270 138° Southeast  Level Estimated
Tue 04:00:00 AM 10.4544 94.9137 138° Southeast  Level Estimated
Tue 04:01:00 AM 10.3586 95.0003 138° Southeast  Level Estimated
Tue 04:02:00 AM 10.2627 95.0869 138° Southeast  Level Estimated
Tue 04:03:00 AM 10.1669 95.1734 138° Southeast  Level Estimated
Tue 04:04:00 AM 10.0710 95.2599 138° Southeast  Level Estimated
Tue 04:05:00 AM 9.9752 95.3463 138° Southeast  Level Estimated
Tue 04:06:00 AM 9.8793 95.4326 138° Southeast  Level Estimated
Tue 04:07:00 AM 9.7833 95.5189 138° Southeast  Level Estimated
Tue 04:08:00 AM 9.6874 95.6052 138° Southeast  Level Estimated
Tue 04:09:00 AM 9.5914 95.6914 138° Southeast  Level Estimated
Tue 04:10:00 AM 9.4954 95.7776 138° Southeast  Level Estimated
Tue 04:10:13 AM 8.8880 97.5320 138° Southeast 464 534 39,000  Level FlightAware ADS-B
Tue 04:10:48 AM 8.8320 97.5790 140° Southeast 463 533 39,000  Level FlightAware ADS-B
Tue 04:12:03 AM 8.7070 97.6830 141° Southeast 463 533 39,000  Level FlightAware ADS-B
Tue 04:12:48 AM 8.6390 97.7410 140° Southeast 463 533 39,000  Level FlightAware ADS-B
Tue 04:13:28 AM 8.5660 97.8010 141° Southeast 455 524 39,000  Level FlightAware ADS-B
Tue 04:14:08 AM 8.5000 97.8560 141° Southeast 455 524 39,000  Level FlightAware ADS-B
Tue 04:14:53 AM 8.4290 97.9150 141° Southeast 456 525 39,000  Level FlightAware ADS-B
Tue 04:15:33 AM 8.3650 97.9690 140° Southeast 457 526 39,000  Level FlightAware ADS-B
Tue 04:16:18 AM 8.2930 98.0290 140° Southeast 457 526 39,000  Level FlightAware ADS-B
Tue 04:16:58 AM 8.2310 98.0810 140° Southeast 457 526 39,000  Level FlightAware ADS-B
Tue 04:17:43 AM 8.1550 98.1430 141° Southeast 459 528 39,000  Level FlightAware ADS-B
Tue 04:18:38 AM 8.0560 98.2260 140° Southeast 459 528 39,000  Level FlightAware ADS-B
Tue 04:19:18 AM 7.9910 98.2800 141° Southeast 456 525 39,000  Level FlightAware ADS-B
Tue 04:19:53 AM 7.9370 98.3250 140° Southeast 456 525 39,000  Level FlightAware ADS-B
Tue 04:20:43 AM 7.8600 98.3890 141° Southeast 456 525 39,000  Level FlightAware ADS-B
Tue 04:21:23 AM 7.7940 98.4440 140° Southeast 453 521 39,000  Level FlightAware ADS-B
Tue 04:22:08 AM 7.7180 98.5060 141° Southeast 453 521 39,000  Level FlightAware ADS-B
Tue 04:22:48 AM 7.6560 98.5580 140° Southeast 454 522 39,000  Level FlightAware ADS-B
Tue 04:23:28 AM 7.5920 98.6110 141° Southeast 455 524 39,000  Level FlightAware ADS-B
Tue 04:24:13 AM 7.5110 98.6780 141° Southeast 457 526 39,000  Level FlightAware ADS-B
Tue 04:24:53 AM 7.4450 98.7330 140° Southeast 458 527 39,000  Level FlightAware ADS-B
Tue 04:25:33 AM 7.3860 98.7820 141° Southeast 459 528 39,000  Level FlightAware ADS-B
Tue 04:26:18 AM 7.3100 98.8450 141° Southeast 459 528 39,000  Level FlightAware ADS-B
Tue 04:27:13 AM 7.2250 98.9160 140° Southeast 459 528 39,000  Level FlightAware ADS-B
Tue 04:27:53 AM 7.1550 98.9730 141° Southeast 459 528 39,000  Level FlightAware ADS-B
Tue 04:28:53 AM 7.0670 99.0470 140° Southeast 460 529 39,000  Level FlightAware ADS-B
Tue 04:29:48 AM 6.9700 99.1260 141° Southeast 456 525 39,000  Level FlightAware ADS-B
Tue 04:30:28 AM 6.9040 99.1800 141° Southeast 456 525 39,000  Level FlightAware ADS-B
Tue 04:31:08 AM 6.8390 99.2340 140° Southeast 453 521 39,000  Level FlightAware ADS-B
Tue 04:31:53 AM 6.7640 99.2960 141° Southeast 456 525 39,000  Level FlightAware ADS-B
Tue 04:32:33 AM 6.6960 99.3520 141° Southeast 458 527 39,000  Level FlightAware ADS-B
Tue 04:33:18 AM 6.6240 99.4120 140° Southeast 460 529 39,000  Level FlightAware ADS-B
Tue 04:33:53 AM 6.5660 99.4590 141° Southeast 461 531 39,000  Level FlightAware ADS-B
Tue 04:34:38 AM 6.4920 99.5200 141° Southeast 459 528 39,000  Level FlightAware ADS-B
Tue 04:35:13 AM 6.4370 99.5650 141° Southeast 460 529 39,000  Level FlightAware ADS-B
Tue 04:36:08 AM 6.3430 99.6430 140° Southeast 461 531 39,000  Level FlightAware ADS-B
Tue 04:36:43 AM 6.2850 99.6860 144° Southeast 462 532 39,000  Level FlightAware ADS-B
Tue 04:37:33 AM 6.1880 99.7400 151° Southeast 463 533 39,000  Level FlightAware ADS-B
Tue 04:38:08 AM 6.1200 99.7770 152° Southeast 463 533 39,000  Level FlightAware ADS-B
Tue 04:38:53 AM 6.0410 99.8220 150° Southeast 461 531 39,000  Level FlightAware ADS-B
Tue 04:39:38 AM 5.9550 99.8730 149° Southeast 459 528 39,000  Level FlightAware ADS-B
Tue 04:40:18 AM 5.8820 99.9160 150° Southeast 460 529 39,000  Level FlightAware ADS-B
Tue 04:41:03 AM 5.7980 99.9650 150° Southeast 460 529 39,000  Level FlightAware ADS-B
Tue 04:41:43 AM 5.7290 100.0050 150° Southeast 458 527 39,000  Level FlightAware ADS-B
Tue 04:42:18 AM 5.6630 100.0450 149° Southeast 457 526 39,000  Level FlightAware ADS-B
Tue 04:43:08 AM 5.5720 100.1010 149° Southeast 454 522 39,000  Level FlightAware ADS-B
Tue 04:43:43 AM 5.5120 100.1390 148° Southeast 448 516 39,000  Level FlightAware ADS-B
Tue 04:44:43 AM 5.4020 100.2080 148° Southeast 449 517 39,000  Level FlightAware ADS-B
Tue 04:45:28 AM 5.3220 100.2560 149° Southeast 453 521 39,000  Level FlightAware ADS-B
Tue 04:46:08 AM 5.2520 100.2880 156° South 456 525 39,000  Level FlightAware ADS-B
Tue 04:46:48 AM 5.1680 100.3220 158° South 455 524 39,000  Level FlightAware ADS-B
Tue 04:47:33 AM 5.0810 100.3580 158° South 457 526 39,000  Level FlightAware ADS-B
Tue 04:48:13 AM 5.0030 100.3900 158° South 456 525 39,000  Level FlightAware ADS-B
Tue 04:48:58 AM 4.9140 100.4250 159° South 452 520 39,000  Level FlightAware ADS-B
Tue 04:49:38 AM 4.8340 100.4570 158° South 455 524 39,000  Level FlightAware ADS-B
Tue 04:50:18 AM 4.7560 100.4880 158° South 457 526 39,000  Level FlightAware ADS-B
Tue 04:51:03 AM 4.6690 100.5240 158° South 457 526 39,000  Level FlightAware ADS-B
Tue 04:51:38 AM 4.6010 100.5520 158° South 453 521 39,000  Level FlightAware ADS-B
Tue 04:52:28 AM 4.5010 100.5920 158° South 456 525 39,000  Level FlightAware ADS-B
Tue 04:53:08 AM 4.4220 100.6230 159° South 454 522 39,000  Level FlightAware ADS-B
Tue 04:53:48 AM 4.3440 100.6540 158° South 454 522 39,000 -1,553 Level FlightAware ADS-B
Tue 04:54:33 AM 4.2670 100.6960 151° Southeast 468 539 36,800 -3,176 Descending FlightAware ADS-B
Tue 04:55:13 AM 4.2010 100.7350 149° Southeast 477 549 34,500 -2,727 Descending FlightAware ADS-B
Tue 04:56:23 AM 4.0570 100.8190 150° Southeast 460 529 31,800 -2,345 Descending FlightAware ADS-B
Tue 04:57:03 AM 3.9830 100.8630 149° Southeast 452 520 30,200 -2,047 Descending FlightAware ADS-B
Tue 04:57:48 AM 3.9080 100.9060 150° Southeast 443 510 28,900 -1,933 Descending FlightAware ADS-B
Tue 04:58:33 AM 3.8290 100.9530 149° Southeast 430 495 27,300 -1,976 Descending FlightAware ADS-B
Tue 04:59:13 AM 3.7610 100.9920 150° Southeast 420 483 26,100 -1,705 Descending FlightAware ADS-B
Tue 05:00:08 AM 3.6760 101.0410 150° Southeast 409 471 24,600 -1,768 Descending FlightAware ADS-B
Tue 05:00:48 AM 3.6040 101.0840 149° Southeast 400 460 23,300 -1,760 Descending FlightAware ADS-B
Tue 05:01:23 AM 3.5470 101.1170 150° Southeast 404 465 22,400 -1,835 Descending FlightAware ADS-B
Tue 05:02:13 AM 3.4680 101.1630 150° Southeast 399 459 20,700 -1,832 Descending FlightAware ADS-B
Tue 05:02:58 AM 3.3990 101.2030 150° Southeast 387 445 19,500 -1,200 Descending FlightAware ADS-B
Tue 05:03:38 AM 3.3370 101.2390 150° Southeast 374 430 19,000 -847 Descending FlightAware ADS-B
Tue 05:04:23 AM 3.2700 101.2790 149° Southeast 380 437 18,300 -1,650 Descending FlightAware ADS-B
Tue 05:04:58 AM 3.2150 101.3110 150° Southeast 386 444 16,800 -2,259 Descending FlightAware ADS-B
Tue 05:05:48 AM 3.1400 101.3540 150° Southeast 383 441 15,100 -2,000 Descending FlightAware ADS-B
Tue 05:06:28 AM 3.0760 101.3920 149° Southeast 376 433 13,800 -1,840 Descending FlightAware ADS-B
Tue 05:07:03 AM 3.0220 101.4230 150° Southeast 368 423 12,800 -1,575 Descending FlightAware ADS-B
Tue 05:07:48 AM 2.9600 101.4590 150° Southeast 356 410 11,700 -1,400 Descending FlightAware ADS-B
Tue 05:08:33 AM 2.8980 101.4950 150° Southeast 344 396 10,700 -1,000 Descending FlightAware ADS-B
Tue 05:09:18 AM 2.8370 101.5310 149° Southeast 316 364 10,200 -600 Descending FlightAware ADS-B
Tue 05:09:43 AM 2.8060 101.5490 150° Southeast 296 341 10,000 -720 Descending FlightAware ADS-B
Tue 05:10:08 AM 2.7770 101.5660 150° Southeast 271 312 9,600 -1,309 Descending FlightAware ADS-B
Tue 05:10:38 AM 2.7460 101.5840 150° Southeast 264 304 8,800 -1,600 Descending FlightAware ADS-B
Tue 05:11:08 AM 2.7140 101.6030 149° Southeast 257 296 8,000 -1,418 Descending FlightAware ADS-B
Tue 05:11:33 AM 2.6910 101.6160 151° Southeast 256 295 7,500 -1,050 Descending FlightAware ADS-B
Tue 05:11:48 AM 2.6710 101.6270 151° Southeast 255 293 7,300 -667 Descending FlightAware ADS-B
Tue 05:12:18 AM 2.6420 101.6460 147° Southeast 254 292 7,000 -764 Descending FlightAware ADS-B
Tue 05:12:43 AM 2.6180 101.6620 146° Southeast 254 292 6,600 -554 Descending FlightAware ADS-B
Tue 05:13:23 AM 2.5820 101.6860 146° Southeast 253 291 6,400 -1,029 Descending FlightAware ADS-B
Tue 05:13:53 AM 2.5520 101.7060 146° Southeast 248 285 5,400 -1,527 Descending FlightAware ADS-B
Tue 05:14:18 AM 2.5270 101.7230 146° Southeast 246 283 5,000 -700 Descending FlightAware ADS-B
Tue 05:14:53 AM 2.4940 101.7440 148° Southeast 243 280 4,700 -300 Descending FlightAware ADS-B
Tue 05:15:18 AM 2.4730 101.7590 144° Southeast 225 259 4,700  Level FlightAware ADS-B
Tue 05:15:48 AM 2.4480 101.7760 146° Southeast 225 259 4,700 -200 Level FlightAware ADS-B
Tue 05:16:18 AM 2.4590 101.8050 69° East 209 241 4,500 -436 Descending FlightAware ADS-B
Tue 05:16:43 AM 2.4720 101.8230 54° Northeast 212 244 4,300 -600 Descending FlightAware ADS-B
Tue 05:16:58 AM 2.4820 101.8380 56° Northeast 212 244 4,100 -600 Descending FlightAware ADS-B
Tue 05:17:23 AM 2.4970 101.8520 43° Northeast 208 239 3,900 -400 Descending FlightAware ADS-B
Tue 05:17:28 AM 2.5040 101.8530 North 207 238 3,900 -400 Level FlightAware ADS-B
Tue 05:17:53 AM 2.5250 101.8440 337° Northwest 202 232 3,700 -514 Descending FlightAware ADS-B
Tue 05:18:03 AM 2.5340 101.8390 331° Northwest 200 230 3,600 -600 Descending FlightAware ADS-B
Tue 05:18:33 AM 2.5570 101.8230 325° Northwest 180 207 3,300 -400 Descending FlightAware ADS-B
Tue 05:19:03 AM 2.5790 101.8080 326° Northwest 182 209 3,200 -400 Descending FlightAware ADS-B
Tue 05:19:33 AM 2.5960 101.7970 327° Northwest 184 212 2,900 -750 Descending FlightAware ADS-B
Tue 05:19:43 AM 2.6050 101.7910 326° Northwest 183 211 2,700 -1,050 Descending FlightAware ADS-B
Tue 05:20:13 AM 2.6280 101.7760 327° Northwest 177 204 2,200 -900 Descending FlightAware ADS-B
Tue 05:20:43 AM 2.6460 101.7630 324° Northwest 164 189 1,800 -873 Descending FlightAware ADS-B
Tue 05:21:08 AM 2.6610 101.7530 326° Northwest 149 171 1,400 -667 Descending FlightAware ADS-B
Tue 05:21:28 AM 2.6690 101.7480 328° Northwest 141 162 1,300 -300 Descending FlightAware ADS-B
Tue 05:24:00 AM 2.7456 101.7099 334° Northwest  Level Estimated
Tue 05:25:00 AM 2.7456 101.7099 236° Southwest  Level Estimated
Tue 05:26:00 AM 2.7456 101.7099 236° Southwest  Level Estimated
Tue 05:27:00 AM 2.7456 101.7099 236° Southwest  Level Estimated
Tue 05:28:00 AM 2.7456 101.7099 236° Southwest  Level Estimated
Tue 05:29:00 AM 2.7456 101.7099 236° Southwest  Level Estimated
Tue 05:30:00 AM 2.7456 101.7099 236° Southwest  Level Estimated
Tue 05:31:00 AM 2.7456 101.7099 236° Southwest  Level Estimated
Tue 05:32:00 AM 2.7456 101.7099 236° Southwest  Level Estimated
Tue 05:33:00 AM 2.7456 101.7099 236° Southwest  Level Estimated
Tue 05:34:00 AM 2.7456 101.7099 236° Southwest  Level Estimated

Login

Don't have an account? Register now (free) for customized features, flight alerts, and more!